<?xml version="1.0" encoding="UTF-8" standalone="no" ?>
<gpx xmlns="http://www.topografix.com/GPX/1/1" xmlns:xsi="http://www.w3.org/2001/XMLSchema-instance" xsi:schemaLocation="http://www.topografix.com/GPX/1/1 http://www.topografix.com/GPX/1/1/gpx.xsd" version="1.1" creator="VisuGPX - https://www.visugpx.com">
  <metadata>
    <name>Drauzou12km</name>
  </metadata>
  <wpt lat="44.55526" lon="1.92756">
    <ele>360.40234375</ele>
    <name><![CDATA[Poux Delmas Vente Fromage de brebis]]></name>
    <type><![CDATA[user]]></type>
  </wpt>
  <wpt lat="44.52838" lon="1.92377">
    <ele>371.0078125</ele>
    <name><![CDATA[Réservoir-Parking]]></name>
    <type><![CDATA[user]]></type>
  </wpt>
  <trk>
    <name><![CDATA[Drauzou12km]]></name>
    <trkseg>
      <trkpt lat="44.64336" lon="1.99589">
        <ele>214</ele>
        <time>2018-01-28T08:46:02Z</time>
      </trkpt>
      <trkpt lat="44.64336" lon="1.99589">
        <ele>214</ele>
        <time>2018-01-28T08:46:03Z</time>
      </trkpt>
      <trkpt lat="44.64334" lon="1.9959">
        <ele>214</ele>
        <time>2018-01-28T08:46:05Z</time>
      </trkpt>
      <trkpt lat="44.64326" lon="1.99589">
        <ele>214</ele>
        <time>2018-01-28T08:46:10Z</time>
      </trkpt>
      <trkpt lat="44.64324" lon="1.99588">
        <ele>214</ele>
        <time>2018-01-28T08:46:11Z</time>
      </trkpt>
      <trkpt lat="44.64317" lon="1.99579">
        <ele>214</ele>
        <time>2018-01-28T08:46:14Z</time>
      </trkpt>
      <trkpt lat="44.64316" lon="1.99576">
        <ele>214</ele>
        <time>2018-01-28T08:46:15Z</time>
      </trkpt>
      <trkpt lat="44.64308" lon="1.99564">
        <ele>214</ele>
        <time>2018-01-28T08:46:19Z</time>
      </trkpt>
      <trkpt lat="44.64307" lon="1.99561">
        <ele>214</ele>
        <time>2018-01-28T08:46:20Z</time>
      </trkpt>
      <trkpt lat="44.64305" lon="1.99558">
        <ele>214</ele>
        <time>2018-01-28T08:46:21Z</time>
      </trkpt>
      <trkpt lat="44.64303" lon="1.99555">
        <ele>214</ele>
        <time>2018-01-28T08:46:22Z</time>
      </trkpt>
      <trkpt lat="44.64301" lon="1.99552">
        <ele>214</ele>
        <time>2018-01-28T08:46:23Z</time>
      </trkpt>
      <trkpt lat="44.64298" lon="1.99547">
        <ele>214</ele>
        <time>2018-01-28T08:46:25Z</time>
      </trkpt>
      <trkpt lat="44.64296" lon="1.99545">
        <ele>214</ele>
        <time>2018-01-28T08:46:26Z</time>
      </trkpt>
      <trkpt lat="44.64294" lon="1.99543">
        <ele>214</ele>
        <time>2018-01-28T08:46:27Z</time>
      </trkpt>
      <trkpt lat="44.64292" lon="1.99541">
        <ele>214</ele>
        <time>2018-01-28T08:46:28Z</time>
      </trkpt>
      <trkpt lat="44.64288" lon="1.99537">
        <ele>214</ele>
        <time>2018-01-28T08:46:30Z</time>
      </trkpt>
      <trkpt lat="44.64276" lon="1.99525">
        <ele>214</ele>
        <time>2018-01-28T08:46:35Z</time>
      </trkpt>
      <trkpt lat="44.64272" lon="1.99521">
        <ele>214</ele>
        <time>2018-01-28T08:46:37Z</time>
      </trkpt>
      <trkpt lat="44.64266" lon="1.99516">
        <ele>213</ele>
        <time>2018-01-28T08:46:40Z</time>
      </trkpt>
      <trkpt lat="44.64259" lon="1.99513">
        <ele>213</ele>
        <time>2018-01-28T08:46:43Z</time>
      </trkpt>
      <trkpt lat="44.64255" lon="1.99512">
        <ele>213</ele>
        <time>2018-01-28T08:46:45Z</time>
      </trkpt>
      <trkpt lat="44.64236" lon="1.9951">
        <ele>212</ele>
        <time>2018-01-28T08:46:52Z</time>
      </trkpt>
      <trkpt lat="44.64232" lon="1.99509">
        <ele>212</ele>
        <time>2018-01-28T08:46:54Z</time>
      </trkpt>
      <trkpt lat="44.64229" lon="1.99509">
        <ele>212</ele>
        <time>2018-01-28T08:46:55Z</time>
      </trkpt>
      <trkpt lat="44.64213" lon="1.99508">
        <ele>211</ele>
        <time>2018-01-28T08:47:02Z</time>
      </trkpt>
      <trkpt lat="44.64208" lon="1.99507">
        <ele>211</ele>
        <time>2018-01-28T08:47:04Z</time>
      </trkpt>
      <trkpt lat="44.64206" lon="1.99507">
        <ele>211</ele>
        <time>2018-01-28T08:47:05Z</time>
      </trkpt>
      <trkpt lat="44.64203" lon="1.99507">
        <ele>211</ele>
        <time>2018-01-28T08:47:06Z</time>
      </trkpt>
      <trkpt lat="44.64198" lon="1.99508">
        <ele>211</ele>
        <time>2018-01-28T08:47:08Z</time>
      </trkpt>
      <trkpt lat="44.64182" lon="1.99508">
        <ele>211</ele>
        <time>2018-01-28T08:47:15Z</time>
      </trkpt>
      <trkpt lat="44.6417" lon="1.99508">
        <ele>211</ele>
        <time>2018-01-28T08:47:20Z</time>
      </trkpt>
      <trkpt lat="44.64157" lon="1.99508">
        <ele>210</ele>
        <time>2018-01-28T08:47:25Z</time>
      </trkpt>
      <trkpt lat="44.64136" lon="1.9951">
        <ele>209</ele>
        <time>2018-01-28T08:47:33Z</time>
      </trkpt>
      <trkpt lat="44.64132" lon="1.99511">
        <ele>209</ele>
        <time>2018-01-28T08:47:35Z</time>
      </trkpt>
      <trkpt lat="44.64112" lon="1.99516">
        <ele>209</ele>
        <time>2018-01-28T08:47:42Z</time>
      </trkpt>
      <trkpt lat="44.64104" lon="1.99517">
        <ele>209</ele>
        <time>2018-01-28T08:47:45Z</time>
      </trkpt>
      <trkpt lat="44.64086" lon="1.99522">
        <ele>208</ele>
        <time>2018-01-28T08:47:52Z</time>
      </trkpt>
      <trkpt lat="44.64078" lon="1.99525">
        <ele>207</ele>
        <time>2018-01-28T08:47:55Z</time>
      </trkpt>
      <trkpt lat="44.64058" lon="1.9953">
        <ele>207</ele>
        <time>2018-01-28T08:48:02Z</time>
      </trkpt>
      <trkpt lat="44.6405" lon="1.9953">
        <ele>207</ele>
        <time>2018-01-28T08:48:05Z</time>
      </trkpt>
      <trkpt lat="44.6403" lon="1.99526">
        <ele>207</ele>
        <time>2018-01-28T08:48:13Z</time>
      </trkpt>
      <trkpt lat="44.64025" lon="1.99524">
        <ele>207</ele>
        <time>2018-01-28T08:48:15Z</time>
      </trkpt>
      <trkpt lat="44.64011" lon="1.99523">
        <ele>207</ele>
        <time>2018-01-28T08:48:21Z</time>
      </trkpt>
      <trkpt lat="44.64005" lon="1.99524">
        <ele>207</ele>
        <time>2018-01-28T08:48:24Z</time>
      </trkpt>
      <trkpt lat="44.64002" lon="1.99525">
        <ele>207</ele>
        <time>2018-01-28T08:48:25Z</time>
      </trkpt>
      <trkpt lat="44.63984" lon="1.99529">
        <ele>208</ele>
        <time>2018-01-28T08:48:33Z</time>
      </trkpt>
      <trkpt lat="44.63979" lon="1.99529">
        <ele>208</ele>
        <time>2018-01-28T08:48:35Z</time>
      </trkpt>
      <trkpt lat="44.63962" lon="1.99529">
        <ele>208</ele>
        <time>2018-01-28T08:48:45Z</time>
      </trkpt>
      <trkpt lat="44.63943" lon="1.99532">
        <ele>209</ele>
        <time>2018-01-28T08:48:52Z</time>
      </trkpt>
      <trkpt lat="44.63936" lon="1.99533">
        <ele>209</ele>
        <time>2018-01-28T08:48:55Z</time>
      </trkpt>
      <trkpt lat="44.63917" lon="1.99536">
        <ele>209</ele>
        <time>2018-01-28T08:49:03Z</time>
      </trkpt>
      <trkpt lat="44.63914" lon="1.99536">
        <ele>210</ele>
        <time>2018-01-28T08:49:05Z</time>
      </trkpt>
      <trkpt lat="44.63906" lon="1.99537">
        <ele>210</ele>
        <time>2018-01-28T08:49:09Z</time>
      </trkpt>
      <trkpt lat="44.63903" lon="1.99538">
        <ele>210</ele>
        <time>2018-01-28T08:49:10Z</time>
      </trkpt>
      <trkpt lat="44.63891" lon="1.99542">
        <ele>210</ele>
        <time>2018-01-28T08:49:15Z</time>
      </trkpt>
      <trkpt lat="44.63889" lon="1.99544">
        <ele>210</ele>
        <time>2018-01-28T08:49:16Z</time>
      </trkpt>
      <trkpt lat="44.6387" lon="1.99547">
        <ele>209</ele>
        <time>2018-01-28T08:49:23Z</time>
      </trkpt>
      <trkpt lat="44.63866" lon="1.99547">
        <ele>209</ele>
        <time>2018-01-28T08:49:25Z</time>
      </trkpt>
      <trkpt lat="44.63852" lon="1.99549">
        <ele>209</ele>
        <time>2018-01-28T08:49:31Z</time>
      </trkpt>
      <trkpt lat="44.63842" lon="1.99549">
        <ele>209</ele>
        <time>2018-01-28T08:49:35Z</time>
      </trkpt>
      <trkpt lat="44.63839" lon="1.9955">
        <ele>209</ele>
        <time>2018-01-28T08:49:36Z</time>
      </trkpt>
      <trkpt lat="44.63833" lon="1.99551">
        <ele>209</ele>
        <time>2018-01-28T08:49:37Z</time>
      </trkpt>
      <trkpt lat="44.63812" lon="1.99554">
        <ele>210</ele>
        <time>2018-01-28T08:49:45Z</time>
      </trkpt>
      <trkpt lat="44.63794" lon="1.9956">
        <ele>210</ele>
        <time>2018-01-28T08:49:52Z</time>
      </trkpt>
      <trkpt lat="44.63786" lon="1.9956">
        <ele>210</ele>
        <time>2018-01-28T08:49:56Z</time>
      </trkpt>
      <trkpt lat="44.63768" lon="1.99564">
        <ele>210</ele>
        <time>2018-01-28T08:50:04Z</time>
      </trkpt>
      <trkpt lat="44.63763" lon="1.99567">
        <ele>210</ele>
        <time>2018-01-28T08:50:06Z</time>
      </trkpt>
      <trkpt lat="44.6375" lon="1.99586">
        <ele>210</ele>
        <time>2018-01-28T08:50:15Z</time>
      </trkpt>
      <trkpt lat="44.63747" lon="1.99591">
        <ele>211</ele>
        <time>2018-01-28T08:50:16Z</time>
      </trkpt>
      <trkpt lat="44.63737" lon="1.99614">
        <ele>213</ele>
        <time>2018-01-28T08:50:25Z</time>
      </trkpt>
      <trkpt lat="44.63734" lon="1.99621">
        <ele>214</ele>
        <time>2018-01-28T08:50:27Z</time>
      </trkpt>
      <trkpt lat="44.63722" lon="1.9964">
        <ele>215</ele>
        <time>2018-01-28T08:50:37Z</time>
      </trkpt>
      <trkpt lat="44.63706" lon="1.99653">
        <ele>216</ele>
        <time>2018-01-28T08:50:45Z</time>
      </trkpt>
      <trkpt lat="44.63702" lon="1.99655">
        <ele>216</ele>
        <time>2018-01-28T08:50:47Z</time>
      </trkpt>
      <trkpt lat="44.63688" lon="1.99658">
        <ele>217</ele>
        <time>2018-01-28T08:50:53Z</time>
      </trkpt>
      <trkpt lat="44.63678" lon="1.99658">
        <ele>217</ele>
        <time>2018-01-28T08:50:57Z</time>
      </trkpt>
      <trkpt lat="44.63659" lon="1.99657">
        <ele>217</ele>
        <time>2018-01-28T08:51:04Z</time>
      </trkpt>
      <trkpt lat="44.63652" lon="1.99657">
        <ele>216</ele>
        <time>2018-01-28T08:51:07Z</time>
      </trkpt>
      <trkpt lat="44.63633" lon="1.99657">
        <ele>215</ele>
        <time>2018-01-28T08:51:15Z</time>
      </trkpt>
      <trkpt lat="44.63629" lon="1.99657">
        <ele>215</ele>
        <time>2018-01-28T08:51:16Z</time>
      </trkpt>
      <trkpt lat="44.63608" lon="1.99661">
        <ele>215</ele>
        <time>2018-01-28T08:51:26Z</time>
      </trkpt>
      <trkpt lat="44.63603" lon="1.99662">
        <ele>215</ele>
        <time>2018-01-28T08:51:27Z</time>
      </trkpt>
      <trkpt lat="44.63584" lon="1.99662">
        <ele>217</ele>
        <time>2018-01-28T08:51:36Z</time>
      </trkpt>
      <trkpt lat="44.63579" lon="1.99662">
        <ele>216</ele>
        <time>2018-01-28T08:51:37Z</time>
      </trkpt>
      <trkpt lat="44.6356" lon="1.99667">
        <ele>223</ele>
        <time>2018-01-28T08:51:46Z</time>
      </trkpt>
      <trkpt lat="44.63556" lon="1.99668">
        <ele>223</ele>
        <time>2018-01-28T08:51:48Z</time>
      </trkpt>
      <trkpt lat="44.63537" lon="1.99675">
        <ele>223</ele>
        <time>2018-01-28T08:51:56Z</time>
      </trkpt>
      <trkpt lat="44.63532" lon="1.99677">
        <ele>223</ele>
        <time>2018-01-28T08:51:58Z</time>
      </trkpt>
      <trkpt lat="44.63517" lon="1.99684">
        <ele>222</ele>
        <time>2018-01-28T08:52:05Z</time>
      </trkpt>
      <trkpt lat="44.63511" lon="1.99689">
        <ele>222</ele>
        <time>2018-01-28T08:52:08Z</time>
      </trkpt>
      <trkpt lat="44.63494" lon="1.99699">
        <ele>220</ele>
        <time>2018-01-28T08:52:18Z</time>
      </trkpt>
      <trkpt lat="44.63487" lon="1.99703">
        <ele>220</ele>
        <time>2018-01-28T08:52:23Z</time>
      </trkpt>
      <trkpt lat="44.63478" lon="1.99704">
        <ele>220</ele>
        <time>2018-01-28T08:52:28Z</time>
      </trkpt>
      <trkpt lat="44.6346" lon="1.99702">
        <ele>219</ele>
        <time>2018-01-28T08:52:37Z</time>
      </trkpt>
      <trkpt lat="44.63455" lon="1.99702">
        <ele>219</ele>
        <time>2018-01-28T08:52:38Z</time>
      </trkpt>
      <trkpt lat="44.63437" lon="1.99706">
        <ele>219</ele>
        <time>2018-01-28T08:52:47Z</time>
      </trkpt>
      <trkpt lat="44.63432" lon="1.99707">
        <ele>219</ele>
        <time>2018-01-28T08:52:49Z</time>
      </trkpt>
      <trkpt lat="44.63414" lon="1.99713">
        <ele>216</ele>
        <time>2018-01-28T08:52:56Z</time>
      </trkpt>
      <trkpt lat="44.63406" lon="1.99717">
        <ele>216</ele>
        <time>2018-01-28T08:52:59Z</time>
      </trkpt>
      <trkpt lat="44.63388" lon="1.99719">
        <ele>216</ele>
        <time>2018-01-28T08:53:06Z</time>
      </trkpt>
      <trkpt lat="44.63381" lon="1.99718">
        <ele>216</ele>
        <time>2018-01-28T08:53:09Z</time>
      </trkpt>
      <trkpt lat="44.63366" lon="1.997">
        <ele>214</ele>
        <time>2018-01-28T08:53:17Z</time>
      </trkpt>
      <trkpt lat="44.63363" lon="1.99696">
        <ele>213</ele>
        <time>2018-01-28T08:53:19Z</time>
      </trkpt>
      <trkpt lat="44.63352" lon="1.99681">
        <ele>212</ele>
        <time>2018-01-28T08:53:25Z</time>
      </trkpt>
      <trkpt lat="44.63345" lon="1.9967">
        <ele>210</ele>
        <time>2018-01-28T08:53:29Z</time>
      </trkpt>
      <trkpt lat="44.63333" lon="1.99648">
        <ele>206</ele>
        <time>2018-01-28T08:53:36Z</time>
      </trkpt>
      <trkpt lat="44.63329" lon="1.99639">
        <ele>206</ele>
        <time>2018-01-28T08:53:39Z</time>
      </trkpt>
      <trkpt lat="44.63326" lon="1.99633">
        <ele>206</ele>
        <time>2018-01-28T08:53:41Z</time>
      </trkpt>
      <trkpt lat="44.63323" lon="1.99627">
        <ele>206</ele>
        <time>2018-01-28T08:53:43Z</time>
      </trkpt>
      <trkpt lat="44.63313" lon="1.99606">
        <ele>205</ele>
        <time>2018-01-28T08:53:49Z</time>
      </trkpt>
      <trkpt lat="44.63308" lon="1.99596">
        <ele>204</ele>
        <time>2018-01-28T08:53:52Z</time>
      </trkpt>
      <trkpt lat="44.63298" lon="1.99577">
        <ele>202</ele>
        <time>2018-01-28T08:53:59Z</time>
      </trkpt>
      <trkpt lat="44.63284" lon="1.99558">
        <ele>202</ele>
        <time>2018-01-28T08:54:07Z</time>
      </trkpt>
      <trkpt lat="44.63281" lon="1.99552">
        <ele>202</ele>
        <time>2018-01-28T08:54:09Z</time>
      </trkpt>
      <trkpt lat="44.63276" lon="1.99538">
        <ele>202</ele>
        <time>2018-01-28T08:54:13Z</time>
      </trkpt>
      <trkpt lat="44.63269" lon="1.99517">
        <ele>201</ele>
        <time>2018-01-28T08:54:19Z</time>
      </trkpt>
      <trkpt lat="44.6326" lon="1.99505">
        <ele>201</ele>
        <time>2018-01-28T08:54:24Z</time>
      </trkpt>
      <trkpt lat="44.63247" lon="1.99497">
        <ele>200</ele>
        <time>2018-01-28T08:54:29Z</time>
      </trkpt>
      <trkpt lat="44.6323" lon="1.99487">
        <ele>200</ele>
        <time>2018-01-28T08:54:36Z</time>
      </trkpt>
      <trkpt lat="44.63222" lon="1.99484">
        <ele>201</ele>
        <time>2018-01-28T08:54:39Z</time>
      </trkpt>
      <trkpt lat="44.63204" lon="1.99478">
        <ele>201</ele>
        <time>2018-01-28T08:54:46Z</time>
      </trkpt>
      <trkpt lat="44.63197" lon="1.99476">
        <ele>201</ele>
        <time>2018-01-28T08:54:49Z</time>
      </trkpt>
      <trkpt lat="44.63179" lon="1.99467">
        <ele>201</ele>
        <time>2018-01-28T08:54:57Z</time>
      </trkpt>
      <trkpt lat="44.63174" lon="1.99465">
        <ele>201</ele>
        <time>2018-01-28T08:54:59Z</time>
      </trkpt>
      <trkpt lat="44.63156" lon="1.99456">
        <ele>201</ele>
        <time>2018-01-28T08:55:06Z</time>
      </trkpt>
      <trkpt lat="44.63149" lon="1.99452">
        <ele>201</ele>
        <time>2018-01-28T08:55:09Z</time>
      </trkpt>
      <trkpt lat="44.63134" lon="1.99437">
        <ele>201</ele>
        <time>2018-01-28T08:55:16Z</time>
      </trkpt>
      <trkpt lat="44.63128" lon="1.9943">
        <ele>201</ele>
        <time>2018-01-28T08:55:19Z</time>
      </trkpt>
      <trkpt lat="44.63112" lon="1.99413">
        <ele>201</ele>
        <time>2018-01-28T08:55:27Z</time>
      </trkpt>
      <trkpt lat="44.63108" lon="1.99409">
        <ele>201</ele>
        <time>2018-01-28T08:55:29Z</time>
      </trkpt>
      <trkpt lat="44.6309" lon="1.99397">
        <ele>201</ele>
        <time>2018-01-28T08:55:37Z</time>
      </trkpt>
      <trkpt lat="44.63085" lon="1.99394">
        <ele>201</ele>
        <time>2018-01-28T08:55:39Z</time>
      </trkpt>
      <trkpt lat="44.63068" lon="1.99382">
        <ele>202</ele>
        <time>2018-01-28T08:55:47Z</time>
      </trkpt>
      <trkpt lat="44.63064" lon="1.99379">
        <ele>202</ele>
        <time>2018-01-28T08:55:49Z</time>
      </trkpt>
      <trkpt lat="44.63047" lon="1.99367">
        <ele>202</ele>
        <time>2018-01-28T08:55:58Z</time>
      </trkpt>
      <trkpt lat="44.63045" lon="1.99366">
        <ele>202</ele>
        <time>2018-01-28T08:55:59Z</time>
      </trkpt>
      <trkpt lat="44.63028" lon="1.99351">
        <ele>202</ele>
        <time>2018-01-28T08:56:07Z</time>
      </trkpt>
      <trkpt lat="44.63023" lon="1.99347">
        <ele>202</ele>
        <time>2018-01-28T08:56:09Z</time>
      </trkpt>
      <trkpt lat="44.63005" lon="1.99342">
        <ele>202</ele>
        <time>2018-01-28T08:56:16Z</time>
      </trkpt>
      <trkpt lat="44.62998" lon="1.99345">
        <ele>204</ele>
        <time>2018-01-28T08:56:19Z</time>
      </trkpt>
      <trkpt lat="44.6298" lon="1.99338">
        <ele>206</ele>
        <time>2018-01-28T08:56:26Z</time>
      </trkpt>
      <trkpt lat="44.62975" lon="1.99329">
        <ele>204</ele>
        <time>2018-01-28T08:56:29Z</time>
      </trkpt>
      <trkpt lat="44.62965" lon="1.99307">
        <ele>204</ele>
        <time>2018-01-28T08:56:36Z</time>
      </trkpt>
      <trkpt lat="44.6296" lon="1.99297">
        <ele>204</ele>
        <time>2018-01-28T08:56:39Z</time>
      </trkpt>
      <trkpt lat="44.62949" lon="1.99275">
        <ele>204</ele>
        <time>2018-01-28T08:56:46Z</time>
      </trkpt>
      <trkpt lat="44.62944" lon="1.99267">
        <ele>204</ele>
        <time>2018-01-28T08:56:49Z</time>
      </trkpt>
      <trkpt lat="44.62928" lon="1.99251">
        <ele>203</ele>
        <time>2018-01-28T08:56:57Z</time>
      </trkpt>
      <trkpt lat="44.62924" lon="1.99247">
        <ele>203</ele>
        <time>2018-01-28T08:56:58Z</time>
      </trkpt>
      <trkpt lat="44.6292" lon="1.99243">
        <ele>203</ele>
        <time>2018-01-28T08:57:01Z</time>
      </trkpt>
      <trkpt lat="44.62907" lon="1.99232">
        <ele>206</ele>
        <time>2018-01-28T08:57:07Z</time>
      </trkpt>
      <trkpt lat="44.62903" lon="1.99228">
        <ele>206</ele>
        <time>2018-01-28T08:57:09Z</time>
      </trkpt>
      <trkpt lat="44.62892" lon="1.99218">
        <ele>207</ele>
        <time>2018-01-28T08:57:14Z</time>
      </trkpt>
      <trkpt lat="44.62884" lon="1.99206">
        <ele>207</ele>
        <time>2018-01-28T08:57:19Z</time>
      </trkpt>
      <trkpt lat="44.62872" lon="1.99185">
        <ele>207</ele>
        <time>2018-01-28T08:57:28Z</time>
      </trkpt>
      <trkpt lat="44.62867" lon="1.99183">
        <ele>208</ele>
        <time>2018-01-28T08:57:29Z</time>
      </trkpt>
      <trkpt lat="44.6285" lon="1.99174">
        <ele>208</ele>
        <time>2018-01-28T08:57:37Z</time>
      </trkpt>
      <trkpt lat="44.62843" lon="1.9917">
        <ele>208</ele>
        <time>2018-01-28T08:57:40Z</time>
      </trkpt>
      <trkpt lat="44.62827" lon="1.99158">
        <ele>208</ele>
        <time>2018-01-28T08:57:46Z</time>
      </trkpt>
      <trkpt lat="44.62821" lon="1.99151">
        <ele>209</ele>
        <time>2018-01-28T08:57:50Z</time>
      </trkpt>
      <trkpt lat="44.62807" lon="1.99134">
        <ele>209</ele>
        <time>2018-01-28T08:57:57Z</time>
      </trkpt>
      <trkpt lat="44.628" lon="1.99127">
        <ele>209</ele>
        <time>2018-01-28T08:58:00Z</time>
      </trkpt>
      <trkpt lat="44.62785" lon="1.99112">
        <ele>208</ele>
        <time>2018-01-28T08:58:07Z</time>
      </trkpt>
      <trkpt lat="44.62779" lon="1.99105">
        <ele>208</ele>
        <time>2018-01-28T08:58:10Z</time>
      </trkpt>
      <trkpt lat="44.62762" lon="1.99094">
        <ele>207</ele>
        <time>2018-01-28T08:58:18Z</time>
      </trkpt>
      <trkpt lat="44.6276" lon="1.99092">
        <ele>207</ele>
        <time>2018-01-28T08:58:19Z</time>
      </trkpt>
      <trkpt lat="44.62758" lon="1.9909">
        <ele>207</ele>
        <time>2018-01-28T08:58:20Z</time>
      </trkpt>
      <trkpt lat="44.62742" lon="1.99078">
        <ele>205</ele>
        <time>2018-01-28T08:58:27Z</time>
      </trkpt>
      <trkpt lat="44.62736" lon="1.99072">
        <ele>205</ele>
        <time>2018-01-28T08:58:30Z</time>
      </trkpt>
      <trkpt lat="44.62719" lon="1.99058">
        <ele>204</ele>
        <time>2018-01-28T08:58:38Z</time>
      </trkpt>
      <trkpt lat="44.62715" lon="1.99055">
        <ele>204</ele>
        <time>2018-01-28T08:58:39Z</time>
      </trkpt>
      <trkpt lat="44.62697" lon="1.99046">
        <ele>203</ele>
        <time>2018-01-28T08:58:47Z</time>
      </trkpt>
      <trkpt lat="44.6269" lon="1.99043">
        <ele>203</ele>
        <time>2018-01-28T08:58:50Z</time>
      </trkpt>
      <trkpt lat="44.62679" lon="1.99037">
        <ele>203</ele>
        <time>2018-01-28T08:58:55Z</time>
      </trkpt>
      <trkpt lat="44.62667" lon="1.99032">
        <ele>203</ele>
        <time>2018-01-28T08:59:00Z</time>
      </trkpt>
      <trkpt lat="44.62648" lon="1.99024">
        <ele>203</ele>
        <time>2018-01-28T08:59:08Z</time>
      </trkpt>
      <trkpt lat="44.62644" lon="1.99022">
        <ele>203</ele>
        <time>2018-01-28T08:59:09Z</time>
      </trkpt>
      <trkpt lat="44.62625" lon="1.99013">
        <ele>203</ele>
        <time>2018-01-28T08:59:18Z</time>
      </trkpt>
      <trkpt lat="44.6262" lon="1.9901">
        <ele>202</ele>
        <time>2018-01-28T08:59:19Z</time>
      </trkpt>
      <trkpt lat="44.62602" lon="1.99001">
        <ele>202</ele>
        <time>2018-01-28T08:59:27Z</time>
      </trkpt>
      <trkpt lat="44.62595" lon="1.98998">
        <ele>200</ele>
        <time>2018-01-28T08:59:30Z</time>
      </trkpt>
      <trkpt lat="44.62587" lon="1.98995">
        <ele>200</ele>
        <time>2018-01-28T08:59:34Z</time>
      </trkpt>
      <trkpt lat="44.62584" lon="1.98991">
        <ele>200</ele>
        <time>2018-01-28T08:59:35Z</time>
      </trkpt>
      <trkpt lat="44.62575" lon="1.98986">
        <ele>200</ele>
        <time>2018-01-28T08:59:40Z</time>
      </trkpt>
      <trkpt lat="44.62556" lon="1.98985">
        <ele>200</ele>
        <time>2018-01-28T08:59:48Z</time>
      </trkpt>
      <trkpt lat="44.6255" lon="1.98985">
        <ele>200</ele>
        <time>2018-01-28T08:59:50Z</time>
      </trkpt>
      <trkpt lat="44.62532" lon="1.98984">
        <ele>200</ele>
        <time>2018-01-28T08:59:58Z</time>
      </trkpt>
      <trkpt lat="44.62527" lon="1.98982">
        <ele>200</ele>
        <time>2018-01-28T08:59:59Z</time>
      </trkpt>
      <trkpt lat="44.62509" lon="1.98977">
        <ele>200</ele>
        <time>2018-01-28T09:00:08Z</time>
      </trkpt>
      <trkpt lat="44.62504" lon="1.98975">
        <ele>200</ele>
        <time>2018-01-28T09:00:10Z</time>
      </trkpt>
      <trkpt lat="44.62486" lon="1.98964">
        <ele>198</ele>
        <time>2018-01-28T09:00:17Z</time>
      </trkpt>
      <trkpt lat="44.62479" lon="1.9896">
        <ele>198</ele>
        <time>2018-01-28T09:00:20Z</time>
      </trkpt>
      <trkpt lat="44.6247" lon="1.98954">
        <ele>198</ele>
        <time>2018-01-28T09:00:25Z</time>
      </trkpt>
      <trkpt lat="44.6246" lon="1.9895">
        <ele>198</ele>
        <time>2018-01-28T09:00:30Z</time>
      </trkpt>
      <trkpt lat="44.62456" lon="1.98946">
        <ele>198</ele>
        <time>2018-01-28T09:00:33Z</time>
      </trkpt>
      <trkpt lat="44.6245" lon="1.98942">
        <ele>198</ele>
        <time>2018-01-28T09:00:40Z</time>
      </trkpt>
      <trkpt lat="44.62439" lon="1.98935">
        <ele>198</ele>
        <time>2018-01-28T09:00:50Z</time>
      </trkpt>
      <trkpt lat="44.62436" lon="1.98932">
        <ele>198</ele>
        <time>2018-01-28T09:00:54Z</time>
      </trkpt>
      <trkpt lat="44.62435" lon="1.98933">
        <ele>198</ele>
        <time>2018-01-28T09:00:56Z</time>
      </trkpt>
      <trkpt lat="44.62433" lon="1.98933">
        <ele>198</ele>
        <time>2018-01-28T09:01:00Z</time>
      </trkpt>
      <trkpt lat="44.62433" lon="1.98932">
        <ele>198</ele>
        <time>2018-01-28T09:01:03Z</time>
      </trkpt>
      <trkpt lat="44.62434" lon="1.9892">
        <ele>197</ele>
        <time>2018-01-28T09:01:21Z</time>
      </trkpt>
      <trkpt lat="44.62433" lon="1.98918">
        <ele>197</ele>
        <time>2018-01-28T09:01:22Z</time>
      </trkpt>
      <trkpt lat="44.6243" lon="1.98916">
        <ele>197</ele>
        <time>2018-01-28T09:01:24Z</time>
      </trkpt>
      <trkpt lat="44.62417" lon="1.98904">
        <ele>197</ele>
        <time>2018-01-28T09:01:30Z</time>
      </trkpt>
      <trkpt lat="44.624" lon="1.98892">
        <ele>197</ele>
        <time>2018-01-28T09:01:36Z</time>
      </trkpt>
      <trkpt lat="44.62392" lon="1.98888">
        <ele>197</ele>
        <time>2018-01-28T09:01:40Z</time>
      </trkpt>
      <trkpt lat="44.62374" lon="1.98876">
        <ele>197</ele>
        <time>2018-01-28T09:01:47Z</time>
      </trkpt>
      <trkpt lat="44.6237" lon="1.98871">
        <ele>197</ele>
        <time>2018-01-28T09:01:49Z</time>
      </trkpt>
      <trkpt lat="44.62366" lon="1.98866">
        <ele>197</ele>
        <time>2018-01-28T09:01:50Z</time>
      </trkpt>
      <trkpt lat="44.62353" lon="1.98849">
        <ele>197</ele>
        <time>2018-01-28T09:01:58Z</time>
      </trkpt>
      <trkpt lat="44.62349" lon="1.98843">
        <ele>197</ele>
        <time>2018-01-28T09:02:00Z</time>
      </trkpt>
      <trkpt lat="44.62345" lon="1.98838">
        <ele>196</ele>
        <time>2018-01-28T09:02:02Z</time>
      </trkpt>
      <trkpt lat="44.62329" lon="1.98826">
        <ele>196</ele>
        <time>2018-01-28T09:02:09Z</time>
      </trkpt>
      <trkpt lat="44.62326" lon="1.98825">
        <ele>196</ele>
        <time>2018-01-28T09:02:10Z</time>
      </trkpt>
      <trkpt lat="44.62318" lon="1.98822">
        <ele>197</ele>
        <time>2018-01-28T09:02:13Z</time>
      </trkpt>
      <trkpt lat="44.62301" lon="1.98816">
        <ele>197</ele>
        <time>2018-01-28T09:02:20Z</time>
      </trkpt>
      <trkpt lat="44.62282" lon="1.98809">
        <ele>197</ele>
        <time>2018-01-28T09:02:28Z</time>
      </trkpt>
      <trkpt lat="44.62278" lon="1.98807">
        <ele>197</ele>
        <time>2018-01-28T09:02:30Z</time>
      </trkpt>
      <trkpt lat="44.6226" lon="1.98799">
        <ele>197</ele>
        <time>2018-01-28T09:02:38Z</time>
      </trkpt>
      <trkpt lat="44.62255" lon="1.98796">
        <ele>197</ele>
        <time>2018-01-28T09:02:40Z</time>
      </trkpt>
      <trkpt lat="44.62237" lon="1.98786">
        <ele>198</ele>
        <time>2018-01-28T09:02:50Z</time>
      </trkpt>
      <trkpt lat="44.62219" lon="1.9878">
        <ele>198</ele>
        <time>2018-01-28T09:02:59Z</time>
      </trkpt>
      <trkpt lat="44.62215" lon="1.98779">
        <ele>198</ele>
        <time>2018-01-28T09:03:00Z</time>
      </trkpt>
      <trkpt lat="44.62195" lon="1.98776">
        <ele>198</ele>
        <time>2018-01-28T09:03:09Z</time>
      </trkpt>
      <trkpt lat="44.62191" lon="1.98774">
        <ele>198</ele>
        <time>2018-01-28T09:03:10Z</time>
      </trkpt>
      <trkpt lat="44.6217" lon="1.98773">
        <ele>198</ele>
        <time>2018-01-28T09:03:19Z</time>
      </trkpt>
      <trkpt lat="44.62167" lon="1.98773">
        <ele>198</ele>
        <time>2018-01-28T09:03:20Z</time>
      </trkpt>
      <trkpt lat="44.62156" lon="1.98771">
        <ele>198</ele>
        <time>2018-01-28T09:03:24Z</time>
      </trkpt>
      <trkpt lat="44.62138" lon="1.9877">
        <ele>199</ele>
        <time>2018-01-28T09:03:30Z</time>
      </trkpt>
      <trkpt lat="44.62126" lon="1.98772">
        <ele>199</ele>
        <time>2018-01-28T09:03:34Z</time>
      </trkpt>
      <trkpt lat="44.62109" lon="1.98774">
        <ele>199</ele>
        <time>2018-01-28T09:03:40Z</time>
      </trkpt>
      <trkpt lat="44.62104" lon="1.98774">
        <ele>199</ele>
        <time>2018-01-28T09:03:42Z</time>
      </trkpt>
      <trkpt lat="44.62084" lon="1.98777">
        <ele>199</ele>
        <time>2018-01-28T09:03:49Z</time>
      </trkpt>
      <trkpt lat="44.62079" lon="1.98777">
        <ele>199</ele>
        <time>2018-01-28T09:03:50Z</time>
      </trkpt>
      <trkpt lat="44.6206" lon="1.98773">
        <ele>199</ele>
        <time>2018-01-28T09:03:59Z</time>
      </trkpt>
      <trkpt lat="44.62056" lon="1.98773">
        <ele>199</ele>
        <time>2018-01-28T09:04:01Z</time>
      </trkpt>
      <trkpt lat="44.62035" lon="1.98767">
        <ele>199</ele>
        <time>2018-01-28T09:04:11Z</time>
      </trkpt>
      <trkpt lat="44.62017" lon="1.98769">
        <ele>199</ele>
        <time>2018-01-28T09:04:17Z</time>
      </trkpt>
      <trkpt lat="44.62004" lon="1.98768">
        <ele>198</ele>
        <time>2018-01-28T09:04:21Z</time>
      </trkpt>
      <trkpt lat="44.61984" lon="1.98766">
        <ele>199</ele>
        <time>2018-01-28T09:04:28Z</time>
      </trkpt>
      <trkpt lat="44.61975" lon="1.98766">
        <ele>199</ele>
        <time>2018-01-28T09:04:31Z</time>
      </trkpt>
      <trkpt lat="44.61957" lon="1.98765">
        <ele>199</ele>
        <time>2018-01-28T09:04:38Z</time>
      </trkpt>
      <trkpt lat="44.61949" lon="1.98763">
        <ele>199</ele>
        <time>2018-01-28T09:04:41Z</time>
      </trkpt>
      <trkpt lat="44.6193" lon="1.98754">
        <ele>198</ele>
        <time>2018-01-28T09:04:49Z</time>
      </trkpt>
      <trkpt lat="44.61926" lon="1.98752">
        <ele>198</ele>
        <time>2018-01-28T09:04:50Z</time>
      </trkpt>
      <trkpt lat="44.61913" lon="1.98742">
        <ele>197</ele>
        <time>2018-01-28T09:04:57Z</time>
      </trkpt>
      <trkpt lat="44.61903" lon="1.98734">
        <ele>196</ele>
        <time>2018-01-28T09:05:01Z</time>
      </trkpt>
      <trkpt lat="44.61886" lon="1.98725">
        <ele>196</ele>
        <time>2018-01-28T09:05:08Z</time>
      </trkpt>
      <trkpt lat="44.61879" lon="1.98722">
        <ele>196</ele>
        <time>2018-01-28T09:05:11Z</time>
      </trkpt>
      <trkpt lat="44.61859" lon="1.98718">
        <ele>196</ele>
        <time>2018-01-28T09:05:19Z</time>
      </trkpt>
      <trkpt lat="44.61853" lon="1.98718">
        <ele>196</ele>
        <time>2018-01-28T09:05:20Z</time>
      </trkpt>
      <trkpt lat="44.61834" lon="1.98717">
        <ele>196</ele>
        <time>2018-01-28T09:05:29Z</time>
      </trkpt>
      <trkpt lat="44.61829" lon="1.98718">
        <ele>196</ele>
        <time>2018-01-28T09:05:31Z</time>
      </trkpt>
      <trkpt lat="44.61811" lon="1.98721">
        <ele>197</ele>
        <time>2018-01-28T09:05:39Z</time>
      </trkpt>
      <trkpt lat="44.61807" lon="1.98721">
        <ele>197</ele>
        <time>2018-01-28T09:05:41Z</time>
      </trkpt>
      <trkpt lat="44.61788" lon="1.98721">
        <ele>197</ele>
        <time>2018-01-28T09:05:49Z</time>
      </trkpt>
      <trkpt lat="44.61783" lon="1.9872">
        <ele>197</ele>
        <time>2018-01-28T09:05:51Z</time>
      </trkpt>
      <trkpt lat="44.61764" lon="1.98718">
        <ele>197</ele>
        <time>2018-01-28T09:05:59Z</time>
      </trkpt>
      <trkpt lat="44.6176" lon="1.98718">
        <ele>197</ele>
        <time>2018-01-28T09:06:01Z</time>
      </trkpt>
      <trkpt lat="44.61741" lon="1.9872">
        <ele>200</ele>
        <time>2018-01-28T09:06:08Z</time>
      </trkpt>
      <trkpt lat="44.61733" lon="1.9872">
        <ele>200</ele>
        <time>2018-01-28T09:06:11Z</time>
      </trkpt>
      <trkpt lat="44.61714" lon="1.98717">
        <ele>200</ele>
        <time>2018-01-28T09:06:18Z</time>
      </trkpt>
      <trkpt lat="44.61706" lon="1.98714">
        <ele>200</ele>
        <time>2018-01-28T09:06:21Z</time>
      </trkpt>
      <trkpt lat="44.61689" lon="1.98704">
        <ele>200</ele>
        <time>2018-01-28T09:06:28Z</time>
      </trkpt>
      <trkpt lat="44.61681" lon="1.98701">
        <ele>200</ele>
        <time>2018-01-28T09:06:31Z</time>
      </trkpt>
      <trkpt lat="44.61672" lon="1.98696">
        <ele>200</ele>
        <time>2018-01-28T09:06:35Z</time>
      </trkpt>
      <trkpt lat="44.61659" lon="1.98687">
        <ele>200</ele>
        <time>2018-01-28T09:06:41Z</time>
      </trkpt>
      <trkpt lat="44.61642" lon="1.98673">
        <ele>200</ele>
        <time>2018-01-28T09:06:49Z</time>
      </trkpt>
      <trkpt lat="44.61638" lon="1.9867">
        <ele>200</ele>
        <time>2018-01-28T09:06:51Z</time>
      </trkpt>
      <trkpt lat="44.61621" lon="1.98661">
        <ele>198</ele>
        <time>2018-01-28T09:06:59Z</time>
      </trkpt>
      <trkpt lat="44.61616" lon="1.9866">
        <ele>198</ele>
        <time>2018-01-28T09:07:00Z</time>
      </trkpt>
      <trkpt lat="44.61599" lon="1.98648">
        <ele>198</ele>
        <time>2018-01-28T09:07:09Z</time>
      </trkpt>
      <trkpt lat="44.61594" lon="1.98647">
        <ele>198</ele>
        <time>2018-01-28T09:07:11Z</time>
      </trkpt>
      <trkpt lat="44.61574" lon="1.98646">
        <ele>198</ele>
        <time>2018-01-28T09:07:19Z</time>
      </trkpt>
      <trkpt lat="44.61569" lon="1.98645">
        <ele>198</ele>
        <time>2018-01-28T09:07:21Z</time>
      </trkpt>
      <trkpt lat="44.6155" lon="1.9864">
        <ele>198</ele>
        <time>2018-01-28T09:07:28Z</time>
      </trkpt>
      <trkpt lat="44.61542" lon="1.98638">
        <ele>198</ele>
        <time>2018-01-28T09:07:31Z</time>
      </trkpt>
      <trkpt lat="44.61524" lon="1.9863">
        <ele>198</ele>
        <time>2018-01-28T09:07:38Z</time>
      </trkpt>
      <trkpt lat="44.61518" lon="1.98625">
        <ele>198</ele>
        <time>2018-01-28T09:07:41Z</time>
      </trkpt>
      <trkpt lat="44.61499" lon="1.98614">
        <ele>197</ele>
        <time>2018-01-28T09:07:49Z</time>
      </trkpt>
      <trkpt lat="44.61494" lon="1.98613">
        <ele>197</ele>
        <time>2018-01-28T09:07:51Z</time>
      </trkpt>
      <trkpt lat="44.61476" lon="1.98607">
        <ele>197</ele>
        <time>2018-01-28T09:07:58Z</time>
      </trkpt>
      <trkpt lat="44.61469" lon="1.98604">
        <ele>197</ele>
        <time>2018-01-28T09:08:01Z</time>
      </trkpt>
      <trkpt lat="44.61456" lon="1.98585">
        <ele>197</ele>
        <time>2018-01-28T09:08:08Z</time>
      </trkpt>
      <trkpt lat="44.61451" lon="1.98578">
        <ele>196</ele>
        <time>2018-01-28T09:08:11Z</time>
      </trkpt>
      <trkpt lat="44.6144" lon="1.9856">
        <ele>196</ele>
        <time>2018-01-28T09:08:18Z</time>
      </trkpt>
      <trkpt lat="44.61434" lon="1.98553">
        <ele>196</ele>
        <time>2018-01-28T09:08:21Z</time>
      </trkpt>
      <trkpt lat="44.61417" lon="1.98544">
        <ele>196</ele>
        <time>2018-01-28T09:08:28Z</time>
      </trkpt>
      <trkpt lat="44.61411" lon="1.98545">
        <ele>195</ele>
        <time>2018-01-28T09:08:31Z</time>
      </trkpt>
      <trkpt lat="44.61396" lon="1.9856">
        <ele>195</ele>
        <time>2018-01-28T09:08:40Z</time>
      </trkpt>
      <trkpt lat="44.61395" lon="1.98561">
        <ele>195</ele>
        <time>2018-01-28T09:08:41Z</time>
      </trkpt>
      <trkpt lat="44.61377" lon="1.98572">
        <ele>195</ele>
        <time>2018-01-28T09:08:50Z</time>
      </trkpt>
      <trkpt lat="44.61375" lon="1.98572">
        <ele>195</ele>
        <time>2018-01-28T09:08:51Z</time>
      </trkpt>
      <trkpt lat="44.61356" lon="1.98569">
        <ele>194</ele>
        <time>2018-01-28T09:09:00Z</time>
      </trkpt>
      <trkpt lat="44.61352" lon="1.9857">
        <ele>194</ele>
        <time>2018-01-28T09:09:01Z</time>
      </trkpt>
      <trkpt lat="44.61338" lon="1.98585">
        <ele>194</ele>
        <time>2018-01-28T09:09:12Z</time>
      </trkpt>
      <trkpt lat="44.61329" lon="1.986">
        <ele>195</ele>
        <time>2018-01-28T09:09:20Z</time>
      </trkpt>
      <trkpt lat="44.61329" lon="1.98605">
        <ele>195</ele>
        <time>2018-01-28T09:09:22Z</time>
      </trkpt>
      <trkpt lat="44.61332" lon="1.98631">
        <ele>196</ele>
        <time>2018-01-28T09:09:30Z</time>
      </trkpt>
      <trkpt lat="44.61331" lon="1.98639">
        <ele>196</ele>
        <time>2018-01-28T09:09:31Z</time>
      </trkpt>
      <trkpt lat="44.61331" lon="1.98667">
        <ele>198</ele>
        <time>2018-01-28T09:09:40Z</time>
      </trkpt>
      <trkpt lat="44.61332" lon="1.98673">
        <ele>198</ele>
        <time>2018-01-28T09:09:42Z</time>
      </trkpt>
      <trkpt lat="44.61331" lon="1.98699">
        <ele>197</ele>
        <time>2018-01-28T09:09:50Z</time>
      </trkpt>
      <trkpt lat="44.6133" lon="1.98707">
        <ele>197</ele>
        <time>2018-01-28T09:09:51Z</time>
      </trkpt>
      <trkpt lat="44.61328" lon="1.98734">
        <ele>197</ele>
        <time>2018-01-28T09:10:00Z</time>
      </trkpt>
      <trkpt lat="44.61328" lon="1.98741">
        <ele>198</ele>
        <time>2018-01-28T09:10:02Z</time>
      </trkpt>
      <trkpt lat="44.61326" lon="1.98767">
        <ele>200</ele>
        <time>2018-01-28T09:10:11Z</time>
      </trkpt>
      <trkpt lat="44.61326" lon="1.98769">
        <ele>201</ele>
        <time>2018-01-28T09:10:12Z</time>
      </trkpt>
      <trkpt lat="44.61315" lon="1.98788">
        <ele>202</ele>
        <time>2018-01-28T09:10:22Z</time>
      </trkpt>
      <trkpt lat="44.61308" lon="1.98796">
        <ele>203</ele>
        <time>2018-01-28T09:10:27Z</time>
      </trkpt>
      <trkpt lat="44.613" lon="1.98804">
        <ele>203</ele>
        <time>2018-01-28T09:10:32Z</time>
      </trkpt>
      <trkpt lat="44.61291" lon="1.9881">
        <ele>204</ele>
        <time>2018-01-28T09:10:40Z</time>
      </trkpt>
      <trkpt lat="44.61288" lon="1.98812">
        <ele>204</ele>
        <time>2018-01-28T09:10:41Z</time>
      </trkpt>
      <trkpt lat="44.61276" lon="1.98816">
        <ele>206</ele>
        <time>2018-01-28T09:10:52Z</time>
      </trkpt>
      <trkpt lat="44.61273" lon="1.9882">
        <ele>206</ele>
        <time>2018-01-28T09:10:56Z</time>
      </trkpt>
      <trkpt lat="44.61269" lon="1.9883">
        <ele>208</ele>
        <time>2018-01-28T09:11:02Z</time>
      </trkpt>
      <trkpt lat="44.61261" lon="1.98848">
        <ele>212</ele>
        <time>2018-01-28T09:11:12Z</time>
      </trkpt>
      <trkpt lat="44.61256" lon="1.98859">
        <ele>212</ele>
        <time>2018-01-28T09:11:17Z</time>
      </trkpt>
      <trkpt lat="44.61253" lon="1.98864">
        <ele>213</ele>
        <time>2018-01-28T09:11:20Z</time>
      </trkpt>
      <trkpt lat="44.61253" lon="1.98865">
        <ele>213</ele>
        <time>2018-01-28T09:11:21Z</time>
      </trkpt>
      <trkpt lat="44.61252" lon="1.98867">
        <ele>213</ele>
        <time>2018-01-28T09:11:22Z</time>
      </trkpt>
      <trkpt lat="44.61243" lon="1.98886">
        <ele>218</ele>
        <time>2018-01-28T09:11:32Z</time>
      </trkpt>
      <trkpt lat="44.61239" lon="1.98895">
        <ele>219</ele>
        <time>2018-01-28T09:11:37Z</time>
      </trkpt>
      <trkpt lat="44.61234" lon="1.98903">
        <ele>219</ele>
        <time>2018-01-28T09:11:42Z</time>
      </trkpt>
      <trkpt lat="44.61231" lon="1.98908">
        <ele>219</ele>
        <time>2018-01-28T09:11:45Z</time>
      </trkpt>
      <trkpt lat="44.6123" lon="1.9891">
        <ele>219</ele>
        <time>2018-01-28T09:11:46Z</time>
      </trkpt>
      <trkpt lat="44.61223" lon="1.9892">
        <ele>224</ele>
        <time>2018-01-28T09:11:52Z</time>
      </trkpt>
      <trkpt lat="44.61222" lon="1.98921">
        <ele>224</ele>
        <time>2018-01-28T09:11:53Z</time>
      </trkpt>
      <trkpt lat="44.61222" lon="1.98923">
        <ele>225</ele>
        <time>2018-01-28T09:11:54Z</time>
      </trkpt>
      <trkpt lat="44.6122" lon="1.98924">
        <ele>225</ele>
        <time>2018-01-28T09:11:55Z</time>
      </trkpt>
      <trkpt lat="44.61215" lon="1.98931">
        <ele>226</ele>
        <time>2018-01-28T09:12:00Z</time>
      </trkpt>
      <trkpt lat="44.61214" lon="1.98934">
        <ele>226</ele>
        <time>2018-01-28T09:12:02Z</time>
      </trkpt>
      <trkpt lat="44.61209" lon="1.98943">
        <ele>227</ele>
        <time>2018-01-28T09:12:07Z</time>
      </trkpt>
      <trkpt lat="44.61206" lon="1.98948">
        <ele>227</ele>
        <time>2018-01-28T09:12:11Z</time>
      </trkpt>
      <trkpt lat="44.61203" lon="1.98951">
        <ele>227</ele>
        <time>2018-01-28T09:12:12Z</time>
      </trkpt>
      <trkpt lat="44.61195" lon="1.98966">
        <ele>229</ele>
        <time>2018-01-28T09:12:23Z</time>
      </trkpt>
      <trkpt lat="44.6119" lon="1.98973">
        <ele>230</ele>
        <time>2018-01-28T09:12:28Z</time>
      </trkpt>
      <trkpt lat="44.61186" lon="1.98981">
        <ele>231</ele>
        <time>2018-01-28T09:12:33Z</time>
      </trkpt>
      <trkpt lat="44.6118" lon="1.98991">
        <ele>234</ele>
        <time>2018-01-28T09:12:42Z</time>
      </trkpt>
      <trkpt lat="44.61179" lon="1.98991">
        <ele>234</ele>
        <time>2018-01-28T09:12:43Z</time>
      </trkpt>
      <trkpt lat="44.61174" lon="1.98995">
        <ele>236</ele>
        <time>2018-01-28T09:12:49Z</time>
      </trkpt>
      <trkpt lat="44.61173" lon="1.98995">
        <ele>237</ele>
        <time>2018-01-28T09:12:50Z</time>
      </trkpt>
      <trkpt lat="44.61169" lon="1.98995">
        <ele>238</ele>
        <time>2018-01-28T09:12:53Z</time>
      </trkpt>
      <trkpt lat="44.6115" lon="1.98998">
        <ele>238</ele>
        <time>2018-01-28T09:13:03Z</time>
      </trkpt>
      <trkpt lat="44.61144" lon="1.99003">
        <ele>245</ele>
        <time>2018-01-28T09:13:10Z</time>
      </trkpt>
      <trkpt lat="44.61141" lon="1.99008">
        <ele>246</ele>
        <time>2018-01-28T09:13:13Z</time>
      </trkpt>
      <trkpt lat="44.61133" lon="1.99019">
        <ele>247</ele>
        <time>2018-01-28T09:13:20Z</time>
      </trkpt>
      <trkpt lat="44.61129" lon="1.99023">
        <ele>248</ele>
        <time>2018-01-28T09:13:23Z</time>
      </trkpt>
      <trkpt lat="44.61115" lon="1.99029">
        <ele>249</ele>
        <time>2018-01-28T09:13:33Z</time>
      </trkpt>
      <trkpt lat="44.61098" lon="1.99027">
        <ele>249</ele>
        <time>2018-01-28T09:13:43Z</time>
      </trkpt>
      <trkpt lat="44.61083" lon="1.99026">
        <ele>256</ele>
        <time>2018-01-28T09:13:53Z</time>
      </trkpt>
      <trkpt lat="44.61067" lon="1.99022">
        <ele>256</ele>
        <time>2018-01-28T09:14:03Z</time>
      </trkpt>
      <trkpt lat="44.61051" lon="1.99019">
        <ele>258</ele>
        <time>2018-01-28T09:14:13Z</time>
      </trkpt>
      <trkpt lat="44.61037" lon="1.99022">
        <ele>260</ele>
        <time>2018-01-28T09:14:23Z</time>
      </trkpt>
      <trkpt lat="44.61022" lon="1.99026">
        <ele>262</ele>
        <time>2018-01-28T09:14:33Z</time>
      </trkpt>
      <trkpt lat="44.61014" lon="1.9903">
        <ele>262</ele>
        <time>2018-01-28T09:14:38Z</time>
      </trkpt>
      <trkpt lat="44.61013" lon="1.99031">
        <ele>263</ele>
        <time>2018-01-28T09:14:39Z</time>
      </trkpt>
      <trkpt lat="44.61011" lon="1.99032">
        <ele>263</ele>
        <time>2018-01-28T09:14:40Z</time>
      </trkpt>
      <trkpt lat="44.61006" lon="1.99036">
        <ele>263</ele>
        <time>2018-01-28T09:14:43Z</time>
      </trkpt>
      <trkpt lat="44.60991" lon="1.99036">
        <ele>272</ele>
        <time>2018-01-28T09:14:51Z</time>
      </trkpt>
      <trkpt lat="44.60988" lon="1.99034">
        <ele>272</ele>
        <time>2018-01-28T09:14:53Z</time>
      </trkpt>
      <trkpt lat="44.6098" lon="1.99035">
        <ele>273</ele>
        <time>2018-01-28T09:15:00Z</time>
      </trkpt>
      <trkpt lat="44.60983" lon="1.9904">
        <ele>274</ele>
        <time>2018-01-28T09:15:03Z</time>
      </trkpt>
      <trkpt lat="44.60995" lon="1.99056">
        <ele>275</ele>
        <time>2018-01-28T09:15:13Z</time>
      </trkpt>
      <trkpt lat="44.61008" lon="1.99069">
        <ele>271</ele>
        <time>2018-01-28T09:15:23Z</time>
      </trkpt>
      <trkpt lat="44.61016" lon="1.99087">
        <ele>279</ele>
        <time>2018-01-28T09:15:33Z</time>
      </trkpt>
      <trkpt lat="44.6102" lon="1.99093">
        <ele>279</ele>
        <time>2018-01-28T09:15:38Z</time>
      </trkpt>
      <trkpt lat="44.61022" lon="1.99096">
        <ele>279</ele>
        <time>2018-01-28T09:15:40Z</time>
      </trkpt>
      <trkpt lat="44.61023" lon="1.991">
        <ele>279</ele>
        <time>2018-01-28T09:15:43Z</time>
      </trkpt>
      <trkpt lat="44.61026" lon="1.99107">
        <ele>280</ele>
        <time>2018-01-28T09:15:48Z</time>
      </trkpt>
      <trkpt lat="44.61027" lon="1.99109">
        <ele>280</ele>
        <time>2018-01-28T09:15:49Z</time>
      </trkpt>
      <trkpt lat="44.61029" lon="1.99112">
        <ele>280</ele>
        <time>2018-01-28T09:15:50Z</time>
      </trkpt>
      <trkpt lat="44.61029" lon="1.99112">
        <ele>280</ele>
        <time>2018-01-28T09:15:51Z</time>
      </trkpt>
      <trkpt lat="44.61029" lon="1.99114">
        <ele>280</ele>
        <time>2018-01-28T09:15:52Z</time>
      </trkpt>
      <trkpt lat="44.6103" lon="1.99115">
        <ele>280</ele>
        <time>2018-01-28T09:15:53Z</time>
      </trkpt>
      <trkpt lat="44.61032" lon="1.99117">
        <ele>280</ele>
        <time>2018-01-28T09:15:55Z</time>
      </trkpt>
      <trkpt lat="44.61033" lon="1.99119">
        <ele>280</ele>
        <time>2018-01-28T09:15:56Z</time>
      </trkpt>
      <trkpt lat="44.61034" lon="1.99121">
        <ele>280</ele>
        <time>2018-01-28T09:15:58Z</time>
      </trkpt>
      <trkpt lat="44.61037" lon="1.99126">
        <ele>281</ele>
        <time>2018-01-28T09:16:01Z</time>
      </trkpt>
      <trkpt lat="44.61038" lon="1.99127">
        <ele>281</ele>
        <time>2018-01-28T09:16:02Z</time>
      </trkpt>
      <trkpt lat="44.61039" lon="1.99129">
        <ele>281</ele>
        <time>2018-01-28T09:16:03Z</time>
      </trkpt>
      <trkpt lat="44.61051" lon="1.99144">
        <ele>281</ele>
        <time>2018-01-28T09:16:13Z</time>
      </trkpt>
      <trkpt lat="44.61054" lon="1.99149">
        <ele>281</ele>
        <time>2018-01-28T09:16:16Z</time>
      </trkpt>
      <trkpt lat="44.61061" lon="1.9916">
        <ele>281</ele>
        <time>2018-01-28T09:16:23Z</time>
      </trkpt>
      <trkpt lat="44.61063" lon="1.99163">
        <ele>281</ele>
        <time>2018-01-28T09:16:25Z</time>
      </trkpt>
      <trkpt lat="44.61063" lon="1.99165">
        <ele>281</ele>
        <time>2018-01-28T09:16:26Z</time>
      </trkpt>
      <trkpt lat="44.61064" lon="1.99166">
        <ele>281</ele>
        <time>2018-01-28T09:16:27Z</time>
      </trkpt>
      <trkpt lat="44.6107" lon="1.99173">
        <ele>288</ele>
        <time>2018-01-28T09:16:33Z</time>
      </trkpt>
      <trkpt lat="44.61081" lon="1.99187">
        <ele>289</ele>
        <time>2018-01-28T09:16:43Z</time>
      </trkpt>
      <trkpt lat="44.6109" lon="1.992">
        <ele>281</ele>
        <time>2018-01-28T09:16:53Z</time>
      </trkpt>
      <trkpt lat="44.61099" lon="1.99212">
        <ele>282</ele>
        <time>2018-01-28T09:17:02Z</time>
      </trkpt>
      <trkpt lat="44.611" lon="1.99213">
        <ele>282</ele>
        <time>2018-01-28T09:17:03Z</time>
      </trkpt>
      <trkpt lat="44.61106" lon="1.99231">
        <ele>284</ele>
        <time>2018-01-28T09:17:13Z</time>
      </trkpt>
      <trkpt lat="44.61107" lon="1.9924">
        <ele>285</ele>
        <time>2018-01-28T09:17:17Z</time>
      </trkpt>
      <trkpt lat="44.6111" lon="1.99248">
        <ele>285</ele>
        <time>2018-01-28T09:17:20Z</time>
      </trkpt>
      <trkpt lat="44.61111" lon="1.99252">
        <ele>290</ele>
        <time>2018-01-28T09:17:22Z</time>
      </trkpt>
      <trkpt lat="44.61112" lon="1.99254">
        <ele>290</ele>
        <time>2018-01-28T09:17:23Z</time>
      </trkpt>
      <trkpt lat="44.61113" lon="1.99259">
        <ele>290</ele>
        <time>2018-01-28T09:17:25Z</time>
      </trkpt>
      <trkpt lat="44.61118" lon="1.99276">
        <ele>289</ele>
        <time>2018-01-28T09:17:33Z</time>
      </trkpt>
      <trkpt lat="44.61119" lon="1.99299">
        <ele>290</ele>
        <time>2018-01-28T09:17:43Z</time>
      </trkpt>
      <trkpt lat="44.61118" lon="1.99307">
        <ele>291</ele>
        <time>2018-01-28T09:17:47Z</time>
      </trkpt>
      <trkpt lat="44.61118" lon="1.99312">
        <ele>291</ele>
        <time>2018-01-28T09:17:49Z</time>
      </trkpt>
      <trkpt lat="44.61118" lon="1.99318">
        <ele>291</ele>
        <time>2018-01-28T09:17:52Z</time>
      </trkpt>
      <trkpt lat="44.61118" lon="1.99319">
        <ele>291</ele>
        <time>2018-01-28T09:17:53Z</time>
      </trkpt>
      <trkpt lat="44.61118" lon="1.99321">
        <ele>291</ele>
        <time>2018-01-28T09:17:54Z</time>
      </trkpt>
      <trkpt lat="44.61118" lon="1.99323">
        <ele>291</ele>
        <time>2018-01-28T09:17:55Z</time>
      </trkpt>
      <trkpt lat="44.61117" lon="1.99327">
        <ele>292</ele>
        <time>2018-01-28T09:17:57Z</time>
      </trkpt>
      <trkpt lat="44.61119" lon="1.99337">
        <ele>294</ele>
        <time>2018-01-28T09:18:03Z</time>
      </trkpt>
      <trkpt lat="44.61119" lon="1.99339">
        <ele>294</ele>
        <time>2018-01-28T09:18:04Z</time>
      </trkpt>
      <trkpt lat="44.61118" lon="1.99341">
        <ele>294</ele>
        <time>2018-01-28T09:18:05Z</time>
      </trkpt>
      <trkpt lat="44.61117" lon="1.99355">
        <ele>295</ele>
        <time>2018-01-28T09:18:13Z</time>
      </trkpt>
      <trkpt lat="44.61115" lon="1.99361">
        <ele>295</ele>
        <time>2018-01-28T09:18:16Z</time>
      </trkpt>
      <trkpt lat="44.61114" lon="1.99367">
        <ele>295</ele>
        <time>2018-01-28T09:18:20Z</time>
      </trkpt>
      <trkpt lat="44.61113" lon="1.99373">
        <ele>295</ele>
        <time>2018-01-28T09:18:23Z</time>
      </trkpt>
      <trkpt lat="44.61112" lon="1.99387">
        <ele>295</ele>
        <time>2018-01-28T09:18:28Z</time>
      </trkpt>
      <trkpt lat="44.61111" lon="1.99402">
        <ele>296</ele>
        <time>2018-01-28T09:18:33Z</time>
      </trkpt>
      <trkpt lat="44.6111" lon="1.99408">
        <ele>296</ele>
        <time>2018-01-28T09:18:35Z</time>
      </trkpt>
      <trkpt lat="44.61108" lon="1.99412">
        <ele>297</ele>
        <time>2018-01-28T09:18:37Z</time>
      </trkpt>
      <trkpt lat="44.61106" lon="1.99415">
        <ele>297</ele>
        <time>2018-01-28T09:18:39Z</time>
      </trkpt>
      <trkpt lat="44.61105" lon="1.9942">
        <ele>299</ele>
        <time>2018-01-28T09:18:40Z</time>
      </trkpt>
      <trkpt lat="44.61105" lon="1.9942">
        <ele>299</ele>
        <time>2018-01-28T09:18:41Z</time>
      </trkpt>
      <trkpt lat="44.61103" lon="1.99425">
        <ele>299</ele>
        <time>2018-01-28T09:18:43Z</time>
      </trkpt>
      <trkpt lat="44.61102" lon="1.9943">
        <ele>299</ele>
        <time>2018-01-28T09:18:44Z</time>
      </trkpt>
      <trkpt lat="44.61102" lon="1.9943">
        <ele>299</ele>
        <time>2018-01-28T09:18:45Z</time>
      </trkpt>
      <trkpt lat="44.61102" lon="1.99432">
        <ele>299</ele>
        <time>2018-01-28T09:18:46Z</time>
      </trkpt>
      <trkpt lat="44.61099" lon="1.99438">
        <ele>299</ele>
        <time>2018-01-28T09:18:49Z</time>
      </trkpt>
      <trkpt lat="44.61096" lon="1.99446">
        <ele>299</ele>
        <time>2018-01-28T09:18:53Z</time>
      </trkpt>
      <trkpt lat="44.61094" lon="1.99449">
        <ele>299</ele>
        <time>2018-01-28T09:18:55Z</time>
      </trkpt>
      <trkpt lat="44.61093" lon="1.99451">
        <ele>299</ele>
        <time>2018-01-28T09:18:56Z</time>
      </trkpt>
      <trkpt lat="44.61087" lon="1.99467">
        <ele>299</ele>
        <time>2018-01-28T09:19:03Z</time>
      </trkpt>
      <trkpt lat="44.6109" lon="1.99491">
        <ele>302</ele>
        <time>2018-01-28T09:19:13Z</time>
      </trkpt>
      <trkpt lat="44.61091" lon="1.99495">
        <ele>302</ele>
        <time>2018-01-28T09:19:15Z</time>
      </trkpt>
      <trkpt lat="44.61096" lon="1.99508">
        <ele>303</ele>
        <time>2018-01-28T09:19:21Z</time>
      </trkpt>
      <trkpt lat="44.61096" lon="1.99514">
        <ele>303</ele>
        <time>2018-01-28T09:19:22Z</time>
      </trkpt>
      <trkpt lat="44.61096" lon="1.99527">
        <ele>303</ele>
        <time>2018-01-28T09:19:28Z</time>
      </trkpt>
      <trkpt lat="44.61097" lon="1.9954">
        <ele>303</ele>
        <time>2018-01-28T09:19:33Z</time>
      </trkpt>
      <trkpt lat="44.61097" lon="1.99548">
        <ele>303</ele>
        <time>2018-01-28T09:19:36Z</time>
      </trkpt>
      <trkpt lat="44.61097" lon="1.99553">
        <ele>304</ele>
        <time>2018-01-28T09:19:38Z</time>
      </trkpt>
      <trkpt lat="44.61096" lon="1.99559">
        <ele>304</ele>
        <time>2018-01-28T09:19:41Z</time>
      </trkpt>
      <trkpt lat="44.61096" lon="1.99562">
        <ele>305</ele>
        <time>2018-01-28T09:19:42Z</time>
      </trkpt>
      <trkpt lat="44.61096" lon="1.99564">
        <ele>305</ele>
        <time>2018-01-28T09:19:43Z</time>
      </trkpt>
      <trkpt lat="44.61097" lon="1.99572">
        <ele>306</ele>
        <time>2018-01-28T09:19:46Z</time>
      </trkpt>
      <trkpt lat="44.61094" lon="1.99589">
        <ele>308</ele>
        <time>2018-01-28T09:19:53Z</time>
      </trkpt>
      <trkpt lat="44.61094" lon="1.99597">
        <ele>308</ele>
        <time>2018-01-28T09:19:56Z</time>
      </trkpt>
      <trkpt lat="44.61092" lon="1.99612">
        <ele>307</ele>
        <time>2018-01-28T09:20:03Z</time>
      </trkpt>
      <trkpt lat="44.61095" lon="1.99639">
        <ele>308</ele>
        <time>2018-01-28T09:20:13Z</time>
      </trkpt>
      <trkpt lat="44.61097" lon="1.99665">
        <ele>309</ele>
        <time>2018-01-28T09:20:23Z</time>
      </trkpt>
      <trkpt lat="44.61097" lon="1.99671">
        <ele>309</ele>
        <time>2018-01-28T09:20:24Z</time>
      </trkpt>
      <trkpt lat="44.61093" lon="1.99693">
        <ele>309</ele>
        <time>2018-01-28T09:20:33Z</time>
      </trkpt>
      <trkpt lat="44.61083" lon="1.99714">
        <ele>314</ele>
        <time>2018-01-28T09:20:43Z</time>
      </trkpt>
      <trkpt lat="44.61074" lon="1.99735">
        <ele>314</ele>
        <time>2018-01-28T09:20:53Z</time>
      </trkpt>
      <trkpt lat="44.61068" lon="1.99759">
        <ele>315</ele>
        <time>2018-01-28T09:21:02Z</time>
      </trkpt>
      <trkpt lat="44.61067" lon="1.99764">
        <ele>315</ele>
        <time>2018-01-28T09:21:03Z</time>
      </trkpt>
      <trkpt lat="44.61055" lon="1.99776">
        <ele>315</ele>
        <time>2018-01-28T09:21:10Z</time>
      </trkpt>
      <trkpt lat="44.61048" lon="1.99782">
        <ele>315</ele>
        <time>2018-01-28T09:21:13Z</time>
      </trkpt>
      <trkpt lat="44.61038" lon="1.99803">
        <ele>314</ele>
        <time>2018-01-28T09:21:22Z</time>
      </trkpt>
      <trkpt lat="44.61037" lon="1.99806">
        <ele>314</ele>
        <time>2018-01-28T09:21:23Z</time>
      </trkpt>
      <trkpt lat="44.61035" lon="1.99832">
        <ele>314</ele>
        <time>2018-01-28T09:21:30Z</time>
      </trkpt>
      <trkpt lat="44.61035" lon="1.99841">
        <ele>315</ele>
        <time>2018-01-28T09:21:33Z</time>
      </trkpt>
      <trkpt lat="44.61031" lon="1.99867">
        <ele>316</ele>
        <time>2018-01-28T09:21:43Z</time>
      </trkpt>
      <trkpt lat="44.61028" lon="1.99895">
        <ele>316</ele>
        <time>2018-01-28T09:21:51Z</time>
      </trkpt>
      <trkpt lat="44.61026" lon="1.99903">
        <ele>316</ele>
        <time>2018-01-28T09:21:53Z</time>
      </trkpt>
      <trkpt lat="44.61016" lon="1.99926">
        <ele>317</ele>
        <time>2018-01-28T09:22:01Z</time>
      </trkpt>
      <trkpt lat="44.61013" lon="1.99931">
        <ele>317</ele>
        <time>2018-01-28T09:22:03Z</time>
      </trkpt>
      <trkpt lat="44.61" lon="1.99946">
        <ele>317</ele>
        <time>2018-01-28T09:22:10Z</time>
      </trkpt>
      <trkpt lat="44.61" lon="1.99957">
        <ele>316</ele>
        <time>2018-01-28T09:22:13Z</time>
      </trkpt>
      <trkpt lat="44.61001" lon="1.99965">
        <ele>317</ele>
        <time>2018-01-28T09:22:16Z</time>
      </trkpt>
      <trkpt lat="44.61014" lon="1.9997">
        <ele>317</ele>
        <time>2018-01-28T09:22:23Z</time>
      </trkpt>
      <trkpt lat="44.61032" lon="1.99973">
        <ele>316</ele>
        <time>2018-01-28T09:22:31Z</time>
      </trkpt>
      <trkpt lat="44.61037" lon="1.99973">
        <ele>316</ele>
        <time>2018-01-28T09:22:33Z</time>
      </trkpt>
      <trkpt lat="44.61055" lon="1.99979">
        <ele>316</ele>
        <time>2018-01-28T09:22:41Z</time>
      </trkpt>
      <trkpt lat="44.61059" lon="1.99979">
        <ele>316</ele>
        <time>2018-01-28T09:22:43Z</time>
      </trkpt>
      <trkpt lat="44.61078" lon="1.99978">
        <ele>315</ele>
        <time>2018-01-28T09:22:51Z</time>
      </trkpt>
      <trkpt lat="44.61083" lon="1.99978">
        <ele>315</ele>
        <time>2018-01-28T09:22:53Z</time>
      </trkpt>
      <trkpt lat="44.61101" lon="1.99979">
        <ele>310</ele>
        <time>2018-01-28T09:23:01Z</time>
      </trkpt>
      <trkpt lat="44.61106" lon="1.99977">
        <ele>310</ele>
        <time>2018-01-28T09:23:03Z</time>
      </trkpt>
      <trkpt lat="44.61113" lon="1.99974">
        <ele>309</ele>
        <time>2018-01-28T09:23:07Z</time>
      </trkpt>
      <trkpt lat="44.61122" lon="1.99982">
        <ele>309</ele>
        <time>2018-01-28T09:23:13Z</time>
      </trkpt>
      <trkpt lat="44.61129" lon="1.99992">
        <ele>308</ele>
        <time>2018-01-28T09:23:18Z</time>
      </trkpt>
      <trkpt lat="44.61135" lon="2.00004">
        <ele>307</ele>
        <time>2018-01-28T09:23:23Z</time>
      </trkpt>
      <trkpt lat="44.61139" lon="2.00016">
        <ele>306</ele>
        <time>2018-01-28T09:23:27Z</time>
      </trkpt>
      <trkpt lat="44.61139" lon="2.00019">
        <ele>306</ele>
        <time>2018-01-28T09:23:28Z</time>
      </trkpt>
      <trkpt lat="44.6114" lon="2.00026">
        <ele>306</ele>
        <time>2018-01-28T09:23:30Z</time>
      </trkpt>
      <trkpt lat="44.61141" lon="2.00033">
        <ele>306</ele>
        <time>2018-01-28T09:23:31Z</time>
      </trkpt>
      <trkpt lat="44.61141" lon="2.00036">
        <ele>306</ele>
        <time>2018-01-28T09:23:33Z</time>
      </trkpt>
      <trkpt lat="44.61145" lon="2.00063">
        <ele>305</ele>
        <time>2018-01-28T09:23:41Z</time>
      </trkpt>
      <trkpt lat="44.61145" lon="2.0007">
        <ele>305</ele>
        <time>2018-01-28T09:23:43Z</time>
      </trkpt>
      <trkpt lat="44.61144" lon="2.00097">
        <ele>303</ele>
        <time>2018-01-28T09:23:50Z</time>
      </trkpt>
      <trkpt lat="44.61144" lon="2.00108">
        <ele>303</ele>
        <time>2018-01-28T09:23:53Z</time>
      </trkpt>
      <trkpt lat="44.61154" lon="2.00126">
        <ele>303</ele>
        <time>2018-01-28T09:24:01Z</time>
      </trkpt>
      <trkpt lat="44.61158" lon="2.00129">
        <ele>302</ele>
        <time>2018-01-28T09:24:03Z</time>
      </trkpt>
      <trkpt lat="44.61169" lon="2.0014">
        <ele>298</ele>
        <time>2018-01-28T09:24:09Z</time>
      </trkpt>
      <trkpt lat="44.61174" lon="2.00148">
        <ele>298</ele>
        <time>2018-01-28T09:24:13Z</time>
      </trkpt>
      <trkpt lat="44.6116" lon="2.00166">
        <ele>301</ele>
        <time>2018-01-28T09:24:22Z</time>
      </trkpt>
      <trkpt lat="44.61159" lon="2.00168">
        <ele>300</ele>
        <time>2018-01-28T09:24:23Z</time>
      </trkpt>
      <trkpt lat="44.61147" lon="2.00181">
        <ele>300</ele>
        <time>2018-01-28T09:24:30Z</time>
      </trkpt>
      <trkpt lat="44.61144" lon="2.00187">
        <ele>300</ele>
        <time>2018-01-28T09:24:33Z</time>
      </trkpt>
      <trkpt lat="44.61146" lon="2.00202">
        <ele>300</ele>
        <time>2018-01-28T09:24:38Z</time>
      </trkpt>
      <trkpt lat="44.61154" lon="2.00209">
        <ele>300</ele>
        <time>2018-01-28T09:24:43Z</time>
      </trkpt>
      <trkpt lat="44.61169" lon="2.00217">
        <ele>299</ele>
        <time>2018-01-28T09:24:51Z</time>
      </trkpt>
      <trkpt lat="44.61173" lon="2.0022">
        <ele>299</ele>
        <time>2018-01-28T09:24:53Z</time>
      </trkpt>
      <trkpt lat="44.6119" lon="2.00228">
        <ele>299</ele>
        <time>2018-01-28T09:25:01Z</time>
      </trkpt>
      <trkpt lat="44.61195" lon="2.00228">
        <ele>299</ele>
        <time>2018-01-28T09:25:03Z</time>
      </trkpt>
      <trkpt lat="44.61197" lon="2.00228">
        <ele>299</ele>
        <time>2018-01-28T09:25:04Z</time>
      </trkpt>
      <trkpt lat="44.61216" lon="2.00229">
        <ele>299</ele>
        <time>2018-01-28T09:25:11Z</time>
      </trkpt>
      <trkpt lat="44.61221" lon="2.00229">
        <ele>299</ele>
        <time>2018-01-28T09:25:13Z</time>
      </trkpt>
      <trkpt lat="44.61238" lon="2.00233">
        <ele>300</ele>
        <time>2018-01-28T09:25:20Z</time>
      </trkpt>
      <trkpt lat="44.61245" lon="2.00235">
        <ele>300</ele>
        <time>2018-01-28T09:25:23Z</time>
      </trkpt>
      <trkpt lat="44.61248" lon="2.00236">
        <ele>300</ele>
        <time>2018-01-28T09:25:24Z</time>
      </trkpt>
      <trkpt lat="44.61259" lon="2.00257">
        <ele>301</ele>
        <time>2018-01-28T09:25:32Z</time>
      </trkpt>
      <trkpt lat="44.61262" lon="2.00263">
        <ele>301</ele>
        <time>2018-01-28T09:25:33Z</time>
      </trkpt>
      <trkpt lat="44.61269" lon="2.00273">
        <ele>301</ele>
        <time>2018-01-28T09:25:38Z</time>
      </trkpt>
      <trkpt lat="44.61275" lon="2.00284">
        <ele>301</ele>
        <time>2018-01-28T09:25:43Z</time>
      </trkpt>
      <trkpt lat="44.61288" lon="2.00305">
        <ele>301</ele>
        <time>2018-01-28T09:25:52Z</time>
      </trkpt>
      <trkpt lat="44.61289" lon="2.00307">
        <ele>301</ele>
        <time>2018-01-28T09:25:53Z</time>
      </trkpt>
      <trkpt lat="44.61298" lon="2.00318">
        <ele>301</ele>
        <time>2018-01-28T09:25:58Z</time>
      </trkpt>
      <trkpt lat="44.61306" lon="2.00329">
        <ele>301</ele>
        <time>2018-01-28T09:26:03Z</time>
      </trkpt>
      <trkpt lat="44.61324" lon="2.00338">
        <ele>301</ele>
        <time>2018-01-28T09:26:11Z</time>
      </trkpt>
      <trkpt lat="44.61328" lon="2.0034">
        <ele>301</ele>
        <time>2018-01-28T09:26:13Z</time>
      </trkpt>
      <trkpt lat="44.61341" lon="2.00357">
        <ele>299</ele>
        <time>2018-01-28T09:26:21Z</time>
      </trkpt>
      <trkpt lat="44.61344" lon="2.00361">
        <ele>299</ele>
        <time>2018-01-28T09:26:23Z</time>
      </trkpt>
      <trkpt lat="44.6135" lon="2.00368">
        <ele>299</ele>
        <time>2018-01-28T09:26:26Z</time>
      </trkpt>
      <trkpt lat="44.61358" lon="2.00383">
        <ele>299</ele>
        <time>2018-01-28T09:26:32Z</time>
      </trkpt>
      <trkpt lat="44.61359" lon="2.00386">
        <ele>299</ele>
        <time>2018-01-28T09:26:33Z</time>
      </trkpt>
      <trkpt lat="44.61374" lon="2.00402">
        <ele>299</ele>
        <time>2018-01-28T09:26:42Z</time>
      </trkpt>
      <trkpt lat="44.61378" lon="2.00404">
        <ele>299</ele>
        <time>2018-01-28T09:26:43Z</time>
      </trkpt>
      <trkpt lat="44.61397" lon="2.00407">
        <ele>298</ele>
        <time>2018-01-28T09:26:52Z</time>
      </trkpt>
      <trkpt lat="44.614" lon="2.00408">
        <ele>298</ele>
        <time>2018-01-28T09:26:53Z</time>
      </trkpt>
      <trkpt lat="44.61419" lon="2.00411">
        <ele>298</ele>
        <time>2018-01-28T09:27:00Z</time>
      </trkpt>
      <trkpt lat="44.61426" lon="2.00414">
        <ele>298</ele>
        <time>2018-01-28T09:27:03Z</time>
      </trkpt>
      <trkpt lat="44.61445" lon="2.00419">
        <ele>297</ele>
        <time>2018-01-28T09:27:11Z</time>
      </trkpt>
      <trkpt lat="44.6145" lon="2.0042">
        <ele>297</ele>
        <time>2018-01-28T09:27:13Z</time>
      </trkpt>
      <trkpt lat="44.6147" lon="2.00424">
        <ele>298</ele>
        <time>2018-01-28T09:27:21Z</time>
      </trkpt>
      <trkpt lat="44.61475" lon="2.00425">
        <ele>298</ele>
        <time>2018-01-28T09:27:23Z</time>
      </trkpt>
      <trkpt lat="44.61493" lon="2.0043">
        <ele>298</ele>
        <time>2018-01-28T09:27:31Z</time>
      </trkpt>
      <trkpt lat="44.61498" lon="2.00431">
        <ele>298</ele>
        <time>2018-01-28T09:27:33Z</time>
      </trkpt>
      <trkpt lat="44.61515" lon="2.00436">
        <ele>299</ele>
        <time>2018-01-28T09:27:40Z</time>
      </trkpt>
      <trkpt lat="44.61523" lon="2.00436">
        <ele>299</ele>
        <time>2018-01-28T09:27:43Z</time>
      </trkpt>
      <trkpt lat="44.6154" lon="2.00428">
        <ele>300</ele>
        <time>2018-01-28T09:27:51Z</time>
      </trkpt>
      <trkpt lat="44.61543" lon="2.00424">
        <ele>300</ele>
        <time>2018-01-28T09:27:53Z</time>
      </trkpt>
      <trkpt lat="44.61555" lon="2.00409">
        <ele>300</ele>
        <time>2018-01-28T09:28:00Z</time>
      </trkpt>
      <trkpt lat="44.6156" lon="2.00401">
        <ele>300</ele>
        <time>2018-01-28T09:28:03Z</time>
      </trkpt>
      <trkpt lat="44.61566" lon="2.00391">
        <ele>300</ele>
        <time>2018-01-28T09:28:07Z</time>
      </trkpt>
      <trkpt lat="44.61573" lon="2.00374">
        <ele>299</ele>
        <time>2018-01-28T09:28:13Z</time>
      </trkpt>
      <trkpt lat="44.61585" lon="2.00352">
        <ele>301</ele>
        <time>2018-01-28T09:28:21Z</time>
      </trkpt>
      <trkpt lat="44.61587" lon="2.00346">
        <ele>300</ele>
        <time>2018-01-28T09:28:23Z</time>
      </trkpt>
      <trkpt lat="44.61599" lon="2.00323">
        <ele>300</ele>
        <time>2018-01-28T09:28:31Z</time>
      </trkpt>
      <trkpt lat="44.61603" lon="2.00318">
        <ele>300</ele>
        <time>2018-01-28T09:28:33Z</time>
      </trkpt>
      <trkpt lat="44.61619" lon="2.00292">
        <ele>301</ele>
      </trkpt>
      <trkpt lat="44.61614" lon="2.0028">
        <ele>300</ele>
      </trkpt>
      <trkpt lat="44.61611" lon="2.0027">
        <ele>300</ele>
      </trkpt>
      <trkpt lat="44.61608" lon="2.0026">
        <ele>300</ele>
      </trkpt>
      <trkpt lat="44.61607" lon="2.00249">
        <ele>299</ele>
      </trkpt>
      <trkpt lat="44.61607" lon="2.00235">
        <ele>299</ele>
      </trkpt>
      <trkpt lat="44.61607" lon="2.00224">
        <ele>299</ele>
      </trkpt>
      <trkpt lat="44.61608" lon="2.00205">
        <ele>299</ele>
      </trkpt>
      <trkpt lat="44.61608" lon="2.00198">
        <ele>299</ele>
      </trkpt>
      <trkpt lat="44.61608" lon="2.00189">
        <ele>299</ele>
      </trkpt>
      <trkpt lat="44.61609" lon="2.00183">
        <ele>298</ele>
      </trkpt>
      <trkpt lat="44.6161" lon="2.0018">
        <ele>298</ele>
      </trkpt>
      <trkpt lat="44.6161" lon="2.00175">
        <ele>298</ele>
      </trkpt>
      <trkpt lat="44.61611" lon="2.0017">
        <ele>298</ele>
      </trkpt>
      <trkpt lat="44.61612" lon="2.00164">
        <ele>297</ele>
      </trkpt>
      <trkpt lat="44.61612" lon="2.00161">
        <ele>297</ele>
      </trkpt>
      <trkpt lat="44.61613" lon="2.00155">
        <ele>297</ele>
      </trkpt>
      <trkpt lat="44.61617" lon="2.00138">
        <ele>297</ele>
      </trkpt>
      <trkpt lat="44.61619" lon="2.00123">
        <ele>297</ele>
      </trkpt>
      <trkpt lat="44.61624" lon="2.00106">
        <ele>296</ele>
      </trkpt>
      <trkpt lat="44.61627" lon="2.00086">
        <ele>296</ele>
      </trkpt>
      <trkpt lat="44.6163" lon="2.00068">
        <ele>294</ele>
      </trkpt>
      <trkpt lat="44.61631" lon="2.00055">
        <ele>293</ele>
      </trkpt>
      <trkpt lat="44.61635" lon="2.00037">
        <ele>293</ele>
      </trkpt>
      <trkpt lat="44.61638" lon="2.00024">
        <ele>293</ele>
      </trkpt>
      <trkpt lat="44.6164" lon="2.00014">
        <ele>292</ele>
      </trkpt>
      <trkpt lat="44.61642" lon="2.00002">
        <ele>292</ele>
      </trkpt>
      <trkpt lat="44.61644" lon="1.99993">
        <ele>290</ele>
      </trkpt>
      <trkpt lat="44.61646" lon="1.99978">
        <ele>290</ele>
      </trkpt>
      <trkpt lat="44.61648" lon="1.99968">
        <ele>290</ele>
      </trkpt>
      <trkpt lat="44.61651" lon="1.99955">
        <ele>290</ele>
      </trkpt>
      <trkpt lat="44.61653" lon="1.99942">
        <ele>290</ele>
      </trkpt>
      <trkpt lat="44.61665" lon="1.99934">
        <ele>290</ele>
      </trkpt>
      <trkpt lat="44.61676" lon="1.99923">
        <ele>292</ele>
      </trkpt>
      <trkpt lat="44.61682" lon="1.99913">
        <ele>292</ele>
      </trkpt>
      <trkpt lat="44.61684" lon="1.999">
        <ele>292</ele>
      </trkpt>
      <trkpt lat="44.61692" lon="1.99896">
        <ele>293</ele>
      </trkpt>
      <trkpt lat="44.61701" lon="1.99895">
        <ele>293</ele>
      </trkpt>
      <trkpt lat="44.61707" lon="1.99894">
        <ele>294</ele>
      </trkpt>
      <trkpt lat="44.61711" lon="1.99891">
        <ele>294</ele>
      </trkpt>
      <trkpt lat="44.61715" lon="1.9989">
        <ele>294</ele>
      </trkpt>
      <trkpt lat="44.61718" lon="1.99885">
        <ele>294</ele>
      </trkpt>
      <trkpt lat="44.61721" lon="1.9988">
        <ele>294</ele>
      </trkpt>
      <trkpt lat="44.61723" lon="1.99876">
        <ele>294</ele>
      </trkpt>
      <trkpt lat="44.6173" lon="1.99868">
        <ele>294</ele>
      </trkpt>
      <trkpt lat="44.61735" lon="1.99862">
        <ele>295</ele>
      </trkpt>
      <trkpt lat="44.61743" lon="1.99854">
        <ele>295</ele>
      </trkpt>
      <trkpt lat="44.6175" lon="1.99851">
        <ele>299</ele>
      </trkpt>
      <trkpt lat="44.61756" lon="1.99845">
        <ele>299</ele>
      </trkpt>
      <trkpt lat="44.61761" lon="1.99838">
        <ele>298</ele>
      </trkpt>
      <trkpt lat="44.61768" lon="1.99836">
        <ele>299</ele>
      </trkpt>
      <trkpt lat="44.61778" lon="1.99842">
        <ele>300</ele>
      </trkpt>
      <trkpt lat="44.61783" lon="1.99843">
        <ele>300</ele>
      </trkpt>
      <trkpt lat="44.61791" lon="1.99847">
        <ele>301</ele>
      </trkpt>
      <trkpt lat="44.61803" lon="1.99851">
        <ele>301</ele>
      </trkpt>
      <trkpt lat="44.6181" lon="1.99853">
        <ele>302</ele>
      </trkpt>
      <trkpt lat="44.61818" lon="1.99856">
        <ele>302</ele>
      </trkpt>
      <trkpt lat="44.61825" lon="1.99849">
        <ele>302</ele>
      </trkpt>
      <trkpt lat="44.61827" lon="1.9984">
        <ele>302</ele>
      </trkpt>
      <trkpt lat="44.61832" lon="1.9983">
        <ele>302</ele>
      </trkpt>
      <trkpt lat="44.61834" lon="1.99821">
        <ele>304</ele>
      </trkpt>
      <trkpt lat="44.6184" lon="1.99806">
        <ele>304</ele>
      </trkpt>
      <trkpt lat="44.61844" lon="1.99799">
        <ele>304</ele>
      </trkpt>
      <trkpt lat="44.61848" lon="1.9979">
        <ele>304</ele>
      </trkpt>
      <trkpt lat="44.61849" lon="1.99782">
        <ele>304</ele>
      </trkpt>
      <trkpt lat="44.61851" lon="1.9977">
        <ele>304</ele>
      </trkpt>
      <trkpt lat="44.61852" lon="1.99762">
        <ele>304</ele>
      </trkpt>
      <trkpt lat="44.61853" lon="1.99753">
        <ele>303</ele>
      </trkpt>
      <trkpt lat="44.61853" lon="1.99742">
        <ele>303</ele>
      </trkpt>
      <trkpt lat="44.61854" lon="1.9973">
        <ele>303</ele>
      </trkpt>
      <trkpt lat="44.61856" lon="1.99722">
        <ele>303</ele>
      </trkpt>
      <trkpt lat="44.61858" lon="1.99714">
        <ele>303</ele>
      </trkpt>
      <trkpt lat="44.61859" lon="1.99708">
        <ele>303</ele>
      </trkpt>
      <trkpt lat="44.61864" lon="1.99707">
        <ele>303</ele>
      </trkpt>
      <trkpt lat="44.61869" lon="1.99706">
        <ele>303</ele>
      </trkpt>
      <trkpt lat="44.61876" lon="1.99709">
        <ele>303</ele>
      </trkpt>
      <trkpt lat="44.61884" lon="1.99714">
        <ele>303</ele>
      </trkpt>
      <trkpt lat="44.61891" lon="1.99718">
        <ele>303</ele>
      </trkpt>
      <trkpt lat="44.61898" lon="1.99719">
        <ele>303</ele>
      </trkpt>
      <trkpt lat="44.61905" lon="1.99718">
        <ele>303</ele>
      </trkpt>
      <trkpt lat="44.61912" lon="1.99717">
        <ele>304</ele>
      </trkpt>
      <trkpt lat="44.61918" lon="1.99718">
        <ele>304</ele>
      </trkpt>
      <trkpt lat="44.61923" lon="1.99717">
        <ele>304</ele>
      </trkpt>
      <trkpt lat="44.61928" lon="1.99717">
        <ele>304</ele>
      </trkpt>
      <trkpt lat="44.61932" lon="1.99718">
        <ele>304</ele>
      </trkpt>
      <trkpt lat="44.61937" lon="1.99721">
        <ele>304</ele>
      </trkpt>
      <trkpt lat="44.61941" lon="1.99722">
        <ele>305</ele>
      </trkpt>
      <trkpt lat="44.61945" lon="1.99726">
        <ele>305</ele>
      </trkpt>
      <trkpt lat="44.61948" lon="1.9973">
        <ele>305</ele>
      </trkpt>
      <trkpt lat="44.6195" lon="1.99737">
        <ele>305</ele>
      </trkpt>
      <trkpt lat="44.61953" lon="1.99744">
        <ele>305</ele>
      </trkpt>
      <trkpt lat="44.61957" lon="1.99748">
        <ele>305</ele>
      </trkpt>
      <trkpt lat="44.61961" lon="1.99754">
        <ele>309</ele>
      </trkpt>
      <trkpt lat="44.61966" lon="1.99759">
        <ele>309</ele>
      </trkpt>
      <trkpt lat="44.61969" lon="1.99763">
        <ele>309</ele>
      </trkpt>
      <trkpt lat="44.61973" lon="1.99765">
        <ele>309</ele>
      </trkpt>
      <trkpt lat="44.61976" lon="1.9977">
        <ele>309</ele>
      </trkpt>
      <trkpt lat="44.61977" lon="1.99775">
        <ele>309</ele>
      </trkpt>
      <trkpt lat="44.61977" lon="1.99786">
        <ele>309</ele>
      </trkpt>
      <trkpt lat="44.61976" lon="1.99798">
        <ele>310</ele>
      </trkpt>
      <trkpt lat="44.61974" lon="1.99809">
        <ele>310</ele>
      </trkpt>
      <trkpt lat="44.61972" lon="1.9982">
        <ele>310</ele>
      </trkpt>
      <trkpt lat="44.61971" lon="1.9983">
        <ele>310</ele>
      </trkpt>
      <trkpt lat="44.61973" lon="1.99838">
        <ele>313</ele>
      </trkpt>
      <trkpt lat="44.61975" lon="1.99846">
        <ele>313</ele>
      </trkpt>
      <trkpt lat="44.61975" lon="1.99852">
        <ele>313</ele>
      </trkpt>
      <trkpt lat="44.61974" lon="1.99862">
        <ele>313</ele>
      </trkpt>
      <trkpt lat="44.6197" lon="1.99868">
        <ele>313</ele>
      </trkpt>
      <trkpt lat="44.61968" lon="1.99873">
        <ele>313</ele>
      </trkpt>
      <trkpt lat="44.61967" lon="1.99881">
        <ele>313</ele>
      </trkpt>
      <trkpt lat="44.61966" lon="1.99891">
        <ele>313</ele>
      </trkpt>
      <trkpt lat="44.61969" lon="1.99895">
        <ele>313</ele>
      </trkpt>
      <trkpt lat="44.61975" lon="1.99895">
        <ele>314</ele>
      </trkpt>
      <trkpt lat="44.61978" lon="1.99893">
        <ele>314</ele>
      </trkpt>
      <trkpt lat="44.61981" lon="1.99892">
        <ele>314</ele>
      </trkpt>
      <trkpt lat="44.61986" lon="1.99892">
        <ele>314</ele>
      </trkpt>
      <trkpt lat="44.61991" lon="1.99892">
        <ele>314</ele>
      </trkpt>
      <trkpt lat="44.61994" lon="1.99893">
        <ele>314</ele>
      </trkpt>
      <trkpt lat="44.62" lon="1.99895">
        <ele>315</ele>
      </trkpt>
      <trkpt lat="44.6201" lon="1.999">
        <ele>317</ele>
      </trkpt>
      <trkpt lat="44.62016" lon="1.99904">
        <ele>317</ele>
      </trkpt>
      <trkpt lat="44.62023" lon="1.99906">
        <ele>317</ele>
      </trkpt>
      <trkpt lat="44.62028" lon="1.99905">
        <ele>317</ele>
      </trkpt>
      <trkpt lat="44.62035" lon="1.99901">
        <ele>317</ele>
      </trkpt>
      <trkpt lat="44.62041" lon="1.99896">
        <ele>317</ele>
      </trkpt>
      <trkpt lat="44.62053" lon="1.99891">
        <ele>317</ele>
      </trkpt>
      <trkpt lat="44.62061" lon="1.99888">
        <ele>317</ele>
      </trkpt>
      <trkpt lat="44.62071" lon="1.99883">
        <ele>317</ele>
      </trkpt>
      <trkpt lat="44.62078" lon="1.99878">
        <ele>317</ele>
      </trkpt>
      <trkpt lat="44.62083" lon="1.99873">
        <ele>317</ele>
      </trkpt>
      <trkpt lat="44.62088" lon="1.9987">
        <ele>318</ele>
      </trkpt>
      <trkpt lat="44.62092" lon="1.99868">
        <ele>318</ele>
      </trkpt>
      <trkpt lat="44.62097" lon="1.99867">
        <ele>318</ele>
      </trkpt>
      <trkpt lat="44.62102" lon="1.99872">
        <ele>318</ele>
      </trkpt>
      <trkpt lat="44.62106" lon="1.99882">
        <ele>318</ele>
      </trkpt>
      <trkpt lat="44.62111" lon="1.99895">
        <ele>319</ele>
      </trkpt>
      <trkpt lat="44.62114" lon="1.99907">
        <ele>319</ele>
      </trkpt>
      <trkpt lat="44.62121" lon="1.99925">
        <ele>321</ele>
      </trkpt>
      <trkpt lat="44.62126" lon="1.9994">
        <ele>321</ele>
      </trkpt>
      <trkpt lat="44.62131" lon="1.99954">
        <ele>322</ele>
      </trkpt>
      <trkpt lat="44.62135" lon="1.99963">
        <ele>322</ele>
      </trkpt>
      <trkpt lat="44.62138" lon="1.99968">
        <ele>322</ele>
      </trkpt>
      <trkpt lat="44.62144" lon="1.9997">
        <ele>322</ele>
        <time>2018-01-28T09:33:00Z</time>
      </trkpt>
      <trkpt lat="44.62151" lon="1.99968">
        <ele>322</ele>
        <time>2018-01-28T09:33:03Z</time>
      </trkpt>
      <trkpt lat="44.62157" lon="1.99965">
        <ele>322</ele>
        <time>2018-01-28T09:33:06Z</time>
      </trkpt>
      <trkpt lat="44.62172" lon="1.99966">
        <ele>323</ele>
        <time>2018-01-28T09:33:13Z</time>
      </trkpt>
      <trkpt lat="44.62189" lon="1.99973">
        <ele>323</ele>
        <time>2018-01-28T09:33:22Z</time>
      </trkpt>
      <trkpt lat="44.62193" lon="1.99974">
        <ele>323</ele>
        <time>2018-01-28T09:33:23Z</time>
      </trkpt>
      <trkpt lat="44.62211" lon="1.99983">
        <ele>323</ele>
        <time>2018-01-28T09:33:32Z</time>
      </trkpt>
      <trkpt lat="44.62213" lon="1.99983">
        <ele>323</ele>
        <time>2018-01-28T09:33:33Z</time>
      </trkpt>
      <trkpt lat="44.6223" lon="1.9999">
        <ele>323</ele>
        <time>2018-01-28T09:33:40Z</time>
      </trkpt>
      <trkpt lat="44.62237" lon="1.99992">
        <ele>322</ele>
        <time>2018-01-28T09:33:43Z</time>
      </trkpt>
      <trkpt lat="44.62255" lon="1.99998">
        <ele>322</ele>
        <time>2018-01-28T09:33:50Z</time>
      </trkpt>
      <trkpt lat="44.62264" lon="2.00001">
        <ele>323</ele>
        <time>2018-01-28T09:33:53Z</time>
      </trkpt>
      <trkpt lat="44.62282" lon="2.00002">
        <ele>323</ele>
        <time>2018-01-28T09:34:01Z</time>
      </trkpt>
      <trkpt lat="44.62287" lon="2.00002">
        <ele>324</ele>
        <time>2018-01-28T09:34:03Z</time>
      </trkpt>
      <trkpt lat="44.62306" lon="2.00005">
        <ele>324</ele>
        <time>2018-01-28T09:34:10Z</time>
      </trkpt>
      <trkpt lat="44.62311" lon="2.00005">
        <ele>324</ele>
        <time>2018-01-28T09:34:13Z</time>
      </trkpt>
      <trkpt lat="44.6232" lon="2.00007">
        <ele>325</ele>
        <time>2018-01-28T09:34:17Z</time>
      </trkpt>
      <trkpt lat="44.62333" lon="2.00016">
        <ele>325</ele>
        <time>2018-01-28T09:34:23Z</time>
      </trkpt>
      <trkpt lat="44.62347" lon="2.00031">
        <ele>328</ele>
        <time>2018-01-28T09:34:30Z</time>
      </trkpt>
      <trkpt lat="44.62353" lon="2.00038">
        <ele>329</ele>
        <time>2018-01-28T09:34:33Z</time>
      </trkpt>
      <trkpt lat="44.62365" lon="2.00058">
        <ele>329</ele>
        <time>2018-01-28T09:34:40Z</time>
      </trkpt>
      <trkpt lat="44.6237" lon="2.00067">
        <ele>329</ele>
        <time>2018-01-28T09:34:43Z</time>
      </trkpt>
      <trkpt lat="44.62378" lon="2.00086">
        <ele>327</ele>
        <time>2018-01-28T09:34:49Z</time>
      </trkpt>
      <trkpt lat="44.62384" lon="2.00098">
        <ele>327</ele>
        <time>2018-01-28T09:34:53Z</time>
      </trkpt>
      <trkpt lat="44.62401" lon="2.00103">
        <ele>328</ele>
        <time>2018-01-28T09:35:02Z</time>
      </trkpt>
      <trkpt lat="44.62404" lon="2.00103">
        <ele>328</ele>
        <time>2018-01-28T09:35:03Z</time>
      </trkpt>
      <trkpt lat="44.62422" lon="2.00105">
        <ele>331</ele>
        <time>2018-01-28T09:35:11Z</time>
      </trkpt>
      <trkpt lat="44.62427" lon="2.00105">
        <ele>331</ele>
        <time>2018-01-28T09:35:13Z</time>
      </trkpt>
      <trkpt lat="44.62446" lon="2.00107">
        <ele>331</ele>
        <time>2018-01-28T09:35:22Z</time>
      </trkpt>
      <trkpt lat="44.62451" lon="2.00107">
        <ele>331</ele>
        <time>2018-01-28T09:35:23Z</time>
      </trkpt>
      <trkpt lat="44.62471" lon="2.00106">
        <ele>331</ele>
        <time>2018-01-28T09:35:33Z</time>
      </trkpt>
      <trkpt lat="44.6249" lon="2.00102">
        <ele>332</ele>
        <time>2018-01-28T09:35:41Z</time>
      </trkpt>
      <trkpt lat="44.62495" lon="2.00102">
        <ele>332</ele>
        <time>2018-01-28T09:35:43Z</time>
      </trkpt>
      <trkpt lat="44.62507" lon="2.001">
        <ele>332</ele>
        <time>2018-01-28T09:35:48Z</time>
      </trkpt>
      <trkpt lat="44.62517" lon="2.00098">
        <ele>332</ele>
        <time>2018-01-28T09:35:53Z</time>
      </trkpt>
      <trkpt lat="44.62528" lon="2.00094">
        <ele>331</ele>
        <time>2018-01-28T09:35:58Z</time>
      </trkpt>
      <trkpt lat="44.6254" lon="2.00089">
        <ele>331</ele>
        <time>2018-01-28T09:36:03Z</time>
      </trkpt>
      <trkpt lat="44.62559" lon="2.0009">
        <ele>330</ele>
        <time>2018-01-28T09:36:10Z</time>
      </trkpt>
      <trkpt lat="44.62564" lon="2.00092">
        <ele>330</ele>
        <time>2018-01-28T09:36:13Z</time>
      </trkpt>
      <trkpt lat="44.62583" lon="2.00091">
        <ele>330</ele>
        <time>2018-01-28T09:36:21Z</time>
      </trkpt>
      <trkpt lat="44.62588" lon="2.00091">
        <ele>329</ele>
        <time>2018-01-28T09:36:23Z</time>
      </trkpt>
      <trkpt lat="44.62593" lon="2.00095">
        <ele>328</ele>
        <time>2018-01-28T09:36:24Z</time>
      </trkpt>
      <trkpt lat="44.62603" lon="2.00107">
        <ele>327</ele>
        <time>2018-01-28T09:36:30Z</time>
      </trkpt>
      <trkpt lat="44.62605" lon="2.00115">
        <ele>327</ele>
        <time>2018-01-28T09:36:31Z</time>
      </trkpt>
      <trkpt lat="44.62605" lon="2.00118">
        <ele>326</ele>
        <time>2018-01-28T09:36:33Z</time>
      </trkpt>
      <trkpt lat="44.62607" lon="2.00144">
        <ele>326</ele>
        <time>2018-01-28T09:36:40Z</time>
      </trkpt>
      <trkpt lat="44.62609" lon="2.00155">
        <ele>326</ele>
        <time>2018-01-28T09:36:43Z</time>
      </trkpt>
      <trkpt lat="44.62611" lon="2.00169">
        <ele>325</ele>
        <time>2018-01-28T09:36:47Z</time>
      </trkpt>
      <trkpt lat="44.62614" lon="2.00191">
        <ele>324</ele>
        <time>2018-01-28T09:36:53Z</time>
      </trkpt>
      <trkpt lat="44.62625" lon="2.00215">
        <ele>324</ele>
        <time>2018-01-28T09:37:01Z</time>
      </trkpt>
      <trkpt lat="44.62628" lon="2.0022">
        <ele>324</ele>
        <time>2018-01-28T09:37:03Z</time>
      </trkpt>
      <trkpt lat="44.62643" lon="2.00236">
        <ele>324</ele>
        <time>2018-01-28T09:37:11Z</time>
      </trkpt>
      <trkpt lat="44.62646" lon="2.0024">
        <ele>324</ele>
        <time>2018-01-28T09:37:13Z</time>
      </trkpt>
      <trkpt lat="44.6266" lon="2.00257">
        <ele>323</ele>
        <time>2018-01-28T09:37:21Z</time>
      </trkpt>
      <trkpt lat="44.62665" lon="2.00262">
        <ele>323</ele>
        <time>2018-01-28T09:37:23Z</time>
      </trkpt>
      <trkpt lat="44.62677" lon="2.00283">
        <ele>325</ele>
        <time>2018-01-28T09:37:31Z</time>
      </trkpt>
      <trkpt lat="44.62681" lon="2.00287">
        <ele>325</ele>
        <time>2018-01-28T09:37:33Z</time>
      </trkpt>
      <trkpt lat="44.62694" lon="2.00305">
        <ele>326</ele>
        <time>2018-01-28T09:37:41Z</time>
      </trkpt>
      <trkpt lat="44.62697" lon="2.00309">
        <ele>326</ele>
        <time>2018-01-28T09:37:43Z</time>
      </trkpt>
      <trkpt lat="44.62709" lon="2.0033">
        <ele>326</ele>
        <time>2018-01-28T09:37:51Z</time>
      </trkpt>
      <trkpt lat="44.62711" lon="2.00337">
        <ele>329</ele>
        <time>2018-01-28T09:37:53Z</time>
      </trkpt>
      <trkpt lat="44.6271" lon="2.00363">
        <ele>329</ele>
        <time>2018-01-28T09:38:01Z</time>
      </trkpt>
      <trkpt lat="44.6271" lon="2.00369">
        <ele>329</ele>
        <time>2018-01-28T09:38:03Z</time>
      </trkpt>
      <trkpt lat="44.62709" lon="2.00396">
        <ele>330</ele>
        <time>2018-01-28T09:38:10Z</time>
      </trkpt>
      <trkpt lat="44.62709" lon="2.00403">
        <ele>330</ele>
        <time>2018-01-28T09:38:13Z</time>
      </trkpt>
      <trkpt lat="44.62704" lon="2.0043">
        <ele>333</ele>
        <time>2018-01-28T09:38:21Z</time>
      </trkpt>
      <trkpt lat="44.62702" lon="2.00437">
        <ele>333</ele>
        <time>2018-01-28T09:38:23Z</time>
      </trkpt>
      <trkpt lat="44.62701" lon="2.00463">
        <ele>334</ele>
        <time>2018-01-28T09:38:32Z</time>
      </trkpt>
      <trkpt lat="44.627" lon="2.00467">
        <ele>334</ele>
        <time>2018-01-28T09:38:33Z</time>
      </trkpt>
      <trkpt lat="44.62699" lon="2.00492">
        <ele>334</ele>
        <time>2018-01-28T09:38:43Z</time>
      </trkpt>
      <trkpt lat="44.62699" lon="2.00518">
        <ele>336</ele>
        <time>2018-01-28T09:38:52Z</time>
      </trkpt>
      <trkpt lat="44.62699" lon="2.00521">
        <ele>337</ele>
        <time>2018-01-28T09:38:53Z</time>
      </trkpt>
      <trkpt lat="44.627" lon="2.00529">
        <ele>337</ele>
        <time>2018-01-28T09:38:56Z</time>
      </trkpt>
      <trkpt lat="44.62704" lon="2.00547">
        <ele>337</ele>
        <time>2018-01-28T09:39:03Z</time>
      </trkpt>
      <trkpt lat="44.62705" lon="2.00572">
        <ele>338</ele>
        <time>2018-01-28T09:39:12Z</time>
      </trkpt>
      <trkpt lat="44.62704" lon="2.00578">
        <ele>338</ele>
        <time>2018-01-28T09:39:13Z</time>
      </trkpt>
      <trkpt lat="44.62699" lon="2.00603">
        <ele>340</ele>
        <time>2018-01-28T09:39:22Z</time>
      </trkpt>
      <trkpt lat="44.62698" lon="2.00606">
        <ele>340</ele>
        <time>2018-01-28T09:39:23Z</time>
      </trkpt>
      <trkpt lat="44.62692" lon="2.00631">
        <ele>340</ele>
        <time>2018-01-28T09:39:32Z</time>
      </trkpt>
      <trkpt lat="44.62692" lon="2.00634">
        <ele>341</ele>
        <time>2018-01-28T09:39:33Z</time>
      </trkpt>
      <trkpt lat="44.62687" lon="2.00659">
        <ele>340</ele>
        <time>2018-01-28T09:39:41Z</time>
      </trkpt>
      <trkpt lat="44.62686" lon="2.00665">
        <ele>340</ele>
        <time>2018-01-28T09:39:43Z</time>
      </trkpt>
      <trkpt lat="44.6268" lon="2.0069">
        <ele>343</ele>
        <time>2018-01-28T09:39:51Z</time>
      </trkpt>
      <trkpt lat="44.62678" lon="2.00697">
        <ele>343</ele>
        <time>2018-01-28T09:39:53Z</time>
      </trkpt>
      <trkpt lat="44.6267" lon="2.00722">
        <ele>343</ele>
        <time>2018-01-28T09:40:00Z</time>
      </trkpt>
      <trkpt lat="44.62667" lon="2.00733">
        <ele>343</ele>
        <time>2018-01-28T09:40:03Z</time>
      </trkpt>
      <trkpt lat="44.62663" lon="2.00759">
        <ele>340</ele>
        <time>2018-01-28T09:40:10Z</time>
      </trkpt>
      <trkpt lat="44.62663" lon="2.00769">
        <ele>339</ele>
        <time>2018-01-28T09:40:13Z</time>
      </trkpt>
      <trkpt lat="44.62672" lon="2.00787">
        <ele>345</ele>
        <time>2018-01-28T09:40:23Z</time>
      </trkpt>
      <trkpt lat="44.62673" lon="2.00788">
        <ele>345</ele>
        <time>2018-01-28T09:40:24Z</time>
      </trkpt>
      <trkpt lat="44.62684" lon="2.00804">
        <ele>346</ele>
        <time>2018-01-28T09:40:33Z</time>
      </trkpt>
      <trkpt lat="44.62696" lon="2.00821">
        <ele>347</ele>
        <time>2018-01-28T09:40:43Z</time>
      </trkpt>
      <trkpt lat="44.62703" lon="2.00829">
        <ele>347</ele>
        <time>2018-01-28T09:40:48Z</time>
      </trkpt>
      <trkpt lat="44.6271" lon="2.00837">
        <ele>348</ele>
        <time>2018-01-28T09:40:53Z</time>
      </trkpt>
      <trkpt lat="44.62721" lon="2.00849">
        <ele>349</ele>
        <time>2018-01-28T09:41:01Z</time>
      </trkpt>
      <trkpt lat="44.62723" lon="2.00852">
        <ele>349</ele>
        <time>2018-01-28T09:41:03Z</time>
      </trkpt>
      <trkpt lat="44.62736" lon="2.00869">
        <ele>350</ele>
        <time>2018-01-28T09:41:13Z</time>
      </trkpt>
      <trkpt lat="44.62744" lon="2.00882">
        <ele>350</ele>
        <time>2018-01-28T09:41:20Z</time>
      </trkpt>
      <trkpt lat="44.62748" lon="2.00889">
        <ele>350</ele>
        <time>2018-01-28T09:41:23Z</time>
      </trkpt>
      <trkpt lat="44.6275" lon="2.00894">
        <ele>355</ele>
        <time>2018-01-28T09:41:25Z</time>
      </trkpt>
      <trkpt lat="44.62756" lon="2.00901">
        <ele>355</ele>
        <time>2018-01-28T09:41:29Z</time>
      </trkpt>
      <trkpt lat="44.6276" lon="2.00901">
        <ele>355</ele>
        <time>2018-01-28T09:41:31Z</time>
      </trkpt>
      <trkpt lat="44.62762" lon="2.00897">
        <ele>355</ele>
        <time>2018-01-28T09:41:33Z</time>
      </trkpt>
      <trkpt lat="44.62761" lon="2.00891">
        <ele>355</ele>
        <time>2018-01-28T09:41:36Z</time>
      </trkpt>
      <trkpt lat="44.6276" lon="2.00878">
        <ele>355</ele>
        <time>2018-01-28T09:41:41Z</time>
      </trkpt>
      <trkpt lat="44.62762" lon="2.00873">
        <ele>355</ele>
        <time>2018-01-28T09:41:43Z</time>
      </trkpt>
      <trkpt lat="44.62763" lon="2.00857">
        <ele>355</ele>
        <time>2018-01-28T09:41:49Z</time>
      </trkpt>
      <trkpt lat="44.62766" lon="2.0085">
        <ele>355</ele>
        <time>2018-01-28T09:41:52Z</time>
      </trkpt>
      <trkpt lat="44.62768" lon="2.00845">
        <ele>355</ele>
        <time>2018-01-28T09:41:53Z</time>
      </trkpt>
      <trkpt lat="44.62775" lon="2.00833">
        <ele>355</ele>
        <time>2018-01-28T09:42:00Z</time>
      </trkpt>
      <trkpt lat="44.6278" lon="2.00827">
        <ele>356</ele>
        <time>2018-01-28T09:42:03Z</time>
      </trkpt>
      <trkpt lat="44.62797" lon="2.00814">
        <ele>357</ele>
        <time>2018-01-28T09:42:12Z</time>
      </trkpt>
      <trkpt lat="44.62799" lon="2.00813">
        <ele>357</ele>
        <time>2018-01-28T09:42:13Z</time>
      </trkpt>
      <trkpt lat="44.62814" lon="2.00813">
        <ele>358</ele>
        <time>2018-01-28T09:42:23Z</time>
      </trkpt>
      <trkpt lat="44.62827" lon="2.00816">
        <ele>359</ele>
        <time>2018-01-28T09:42:30Z</time>
      </trkpt>
      <trkpt lat="44.62833" lon="2.00816">
        <ele>359</ele>
        <time>2018-01-28T09:42:33Z</time>
      </trkpt>
      <trkpt lat="44.62844" lon="2.00802">
        <ele>365</ele>
        <time>2018-01-28T09:42:43Z</time>
      </trkpt>
      <trkpt lat="44.62855" lon="2.00787">
        <ele>366</ele>
        <time>2018-01-28T09:42:53Z</time>
      </trkpt>
      <trkpt lat="44.62869" lon="2.00779">
        <ele>367</ele>
        <time>2018-01-28T09:43:02Z</time>
      </trkpt>
      <trkpt lat="44.62871" lon="2.00778">
        <ele>367</ele>
        <time>2018-01-28T09:43:03Z</time>
      </trkpt>
      <trkpt lat="44.62888" lon="2.00772">
        <ele>368</ele>
        <time>2018-01-28T09:43:13Z</time>
      </trkpt>
      <trkpt lat="44.62903" lon="2.00768">
        <ele>369</ele>
        <time>2018-01-28T09:43:23Z</time>
      </trkpt>
      <trkpt lat="44.62921" lon="2.00764">
        <ele>374</ele>
        <time>2018-01-28T09:43:33Z</time>
      </trkpt>
      <trkpt lat="44.62938" lon="2.00759">
        <ele>375</ele>
        <time>2018-01-28T09:43:43Z</time>
      </trkpt>
      <trkpt lat="44.62931" lon="2.00777">
        <ele>375</ele>
      </trkpt>
      <trkpt lat="44.62931" lon="2.00788">
        <ele>375</ele>
      </trkpt>
      <trkpt lat="44.6293" lon="2.0081">
        <ele>375</ele>
      </trkpt>
      <trkpt lat="44.62931" lon="2.00829">
        <ele>374</ele>
      </trkpt>
      <trkpt lat="44.62935" lon="2.00838">
        <ele>376</ele>
      </trkpt>
      <trkpt lat="44.62941" lon="2.00848">
        <ele>377</ele>
      </trkpt>
      <trkpt lat="44.62945" lon="2.00857">
        <ele>378</ele>
      </trkpt>
      <trkpt lat="44.62951" lon="2.0087">
        <ele>378</ele>
      </trkpt>
      <trkpt lat="44.62952" lon="2.00881">
        <ele>379</ele>
      </trkpt>
      <trkpt lat="44.62954" lon="2.00891">
        <ele>379</ele>
      </trkpt>
      <trkpt lat="44.62959" lon="2.00909">
        <ele>379</ele>
      </trkpt>
      <trkpt lat="44.62961" lon="2.00918">
        <ele>381</ele>
      </trkpt>
      <trkpt lat="44.62966" lon="2.00931">
        <ele>381</ele>
      </trkpt>
      <trkpt lat="44.62971" lon="2.00942">
        <ele>381</ele>
      </trkpt>
      <trkpt lat="44.62976" lon="2.00949">
        <ele>381</ele>
      </trkpt>
      <trkpt lat="44.62984" lon="2.00953">
        <ele>382</ele>
      </trkpt>
      <trkpt lat="44.6299" lon="2.00958">
        <ele>382</ele>
      </trkpt>
      <trkpt lat="44.62999" lon="2.00961">
        <ele>382</ele>
      </trkpt>
      <trkpt lat="44.63007" lon="2.00966">
        <ele>387</ele>
      </trkpt>
      <trkpt lat="44.63017" lon="2.00971">
        <ele>387</ele>
      </trkpt>
      <trkpt lat="44.63023" lon="2.00977">
        <ele>387</ele>
      </trkpt>
      <trkpt lat="44.6303" lon="2.00982">
        <ele>388</ele>
      </trkpt>
      <trkpt lat="44.63037" lon="2.00989">
        <ele>388</ele>
      </trkpt>
      <trkpt lat="44.63043" lon="2.00996">
        <ele>388</ele>
      </trkpt>
      <trkpt lat="44.63046" lon="2.01006">
        <ele>386</ele>
      </trkpt>
      <trkpt lat="44.63049" lon="2.01021">
        <ele>385</ele>
      </trkpt>
      <trkpt lat="44.63051" lon="2.01041">
        <ele>384</ele>
      </trkpt>
      <trkpt lat="44.63053" lon="2.01064">
        <ele>383</ele>
      </trkpt>
      <trkpt lat="44.63056" lon="2.0109">
        <ele>378</ele>
      </trkpt>
      <trkpt lat="44.63058" lon="2.01111">
        <ele>377</ele>
      </trkpt>
      <trkpt lat="44.63063" lon="2.0113">
        <ele>376</ele>
      </trkpt>
      <trkpt lat="44.63067" lon="2.01137">
        <ele>376</ele>
      </trkpt>
      <trkpt lat="44.63073" lon="2.01142">
        <ele>376</ele>
      </trkpt>
      <trkpt lat="44.63081" lon="2.01144">
        <ele>376</ele>
      </trkpt>
      <trkpt lat="44.63088" lon="2.01144">
        <ele>378</ele>
      </trkpt>
      <trkpt lat="44.63099" lon="2.01146">
        <ele>378</ele>
      </trkpt>
      <trkpt lat="44.63108" lon="2.01149">
        <ele>379</ele>
      </trkpt>
      <trkpt lat="44.63119" lon="2.01151">
        <ele>379</ele>
      </trkpt>
      <trkpt lat="44.63128" lon="2.01152">
        <ele>379</ele>
      </trkpt>
      <trkpt lat="44.63136" lon="2.01156">
        <ele>379</ele>
      </trkpt>
      <trkpt lat="44.63143" lon="2.01159">
        <ele>379</ele>
      </trkpt>
      <trkpt lat="44.63152" lon="2.01161">
        <ele>379</ele>
      </trkpt>
      <trkpt lat="44.6316" lon="2.01162">
        <ele>379</ele>
      </trkpt>
      <trkpt lat="44.63169" lon="2.01166">
        <ele>378</ele>
      </trkpt>
      <trkpt lat="44.63176" lon="2.01166">
        <ele>378</ele>
      </trkpt>
      <trkpt lat="44.63185" lon="2.01168">
        <ele>375</ele>
      </trkpt>
      <trkpt lat="44.63192" lon="2.01169">
        <ele>374</ele>
      </trkpt>
      <trkpt lat="44.63197" lon="2.01166">
        <ele>377</ele>
      </trkpt>
      <trkpt lat="44.63201" lon="2.01159">
        <ele>377</ele>
      </trkpt>
      <trkpt lat="44.63207" lon="2.01155">
        <ele>377</ele>
      </trkpt>
      <trkpt lat="44.63217" lon="2.01156">
        <ele>376</ele>
      </trkpt>
      <trkpt lat="44.63225" lon="2.01161">
        <ele>376</ele>
      </trkpt>
      <trkpt lat="44.63234" lon="2.01167">
        <ele>375</ele>
      </trkpt>
      <trkpt lat="44.63242" lon="2.01173">
        <ele>373</ele>
      </trkpt>
      <trkpt lat="44.6325" lon="2.0118">
        <ele>370</ele>
      </trkpt>
      <trkpt lat="44.63257" lon="2.01188">
        <ele>369</ele>
      </trkpt>
      <trkpt lat="44.63261" lon="2.01198">
        <ele>367</ele>
      </trkpt>
      <trkpt lat="44.63267" lon="2.01209">
        <ele>366</ele>
      </trkpt>
      <trkpt lat="44.63275" lon="2.01217">
        <ele>365</ele>
      </trkpt>
      <trkpt lat="44.63286" lon="2.01222">
        <ele>365</ele>
      </trkpt>
      <trkpt lat="44.63294" lon="2.01223">
        <ele>364</ele>
      </trkpt>
      <trkpt lat="44.63305" lon="2.01223">
        <ele>364</ele>
      </trkpt>
      <trkpt lat="44.63316" lon="2.01218">
        <ele>363</ele>
      </trkpt>
      <trkpt lat="44.63326" lon="2.01214">
        <ele>363</ele>
      </trkpt>
      <trkpt lat="44.63338" lon="2.0121">
        <ele>357</ele>
      </trkpt>
      <trkpt lat="44.63349" lon="2.01205">
        <ele>357</ele>
      </trkpt>
      <trkpt lat="44.63359" lon="2.012">
        <ele>356</ele>
      </trkpt>
      <trkpt lat="44.63367" lon="2.01197">
        <ele>356</ele>
      </trkpt>
      <trkpt lat="44.63377" lon="2.01196">
        <ele>355</ele>
      </trkpt>
      <trkpt lat="44.63386" lon="2.01197">
        <ele>354</ele>
      </trkpt>
      <trkpt lat="44.63397" lon="2.01199">
        <ele>354</ele>
      </trkpt>
      <trkpt lat="44.63405" lon="2.012">
        <ele>354</ele>
      </trkpt>
      <trkpt lat="44.63413" lon="2.01202">
        <ele>353</ele>
      </trkpt>
      <trkpt lat="44.63422" lon="2.01203">
        <ele>350</ele>
      </trkpt>
      <trkpt lat="44.6343" lon="2.01204">
        <ele>350</ele>
      </trkpt>
      <trkpt lat="44.63438" lon="2.01204">
        <ele>349</ele>
      </trkpt>
      <trkpt lat="44.63445" lon="2.01206">
        <ele>349</ele>
      </trkpt>
      <trkpt lat="44.63451" lon="2.01205">
        <ele>349</ele>
      </trkpt>
      <trkpt lat="44.63455" lon="2.012">
        <ele>349</ele>
      </trkpt>
      <trkpt lat="44.63458" lon="2.01189">
        <ele>349</ele>
      </trkpt>
      <trkpt lat="44.63462" lon="2.01179">
        <ele>349</ele>
      </trkpt>
      <trkpt lat="44.63466" lon="2.01166">
        <ele>346</ele>
      </trkpt>
      <trkpt lat="44.63469" lon="2.01152">
        <ele>346</ele>
      </trkpt>
      <trkpt lat="44.63472" lon="2.01141">
        <ele>345</ele>
      </trkpt>
      <trkpt lat="44.63475" lon="2.0113">
        <ele>345</ele>
      </trkpt>
      <trkpt lat="44.63478" lon="2.01119">
        <ele>345</ele>
      </trkpt>
      <trkpt lat="44.63481" lon="2.0111">
        <ele>344</ele>
      </trkpt>
      <trkpt lat="44.63484" lon="2.01099">
        <ele>344</ele>
      </trkpt>
      <trkpt lat="44.63486" lon="2.01092">
        <ele>344</ele>
      </trkpt>
      <trkpt lat="44.63488" lon="2.01083">
        <ele>342</ele>
      </trkpt>
      <trkpt lat="44.63487" lon="2.01074">
        <ele>342</ele>
      </trkpt>
      <trkpt lat="44.63485" lon="2.01066">
        <ele>342</ele>
      </trkpt>
      <trkpt lat="44.63482" lon="2.01058">
        <ele>342</ele>
      </trkpt>
      <trkpt lat="44.63478" lon="2.01049">
        <ele>342</ele>
      </trkpt>
      <trkpt lat="44.63475" lon="2.01039">
        <ele>342</ele>
      </trkpt>
      <trkpt lat="44.63471" lon="2.0103">
        <ele>342</ele>
      </trkpt>
      <trkpt lat="44.63467" lon="2.01019">
        <ele>341</ele>
      </trkpt>
      <trkpt lat="44.63464" lon="2.01009">
        <ele>341</ele>
      </trkpt>
      <trkpt lat="44.63463" lon="2.00998">
        <ele>340</ele>
      </trkpt>
      <trkpt lat="44.63465" lon="2.0099">
        <ele>340</ele>
      </trkpt>
      <trkpt lat="44.63468" lon="2.00984">
        <ele>340</ele>
      </trkpt>
      <trkpt lat="44.63476" lon="2.00982">
        <ele>340</ele>
      </trkpt>
      <trkpt lat="44.63474" lon="2.00973">
        <ele>340</ele>
      </trkpt>
      <trkpt lat="44.63474" lon="2.00962">
        <ele>339</ele>
      </trkpt>
      <trkpt lat="44.63473" lon="2.00949">
        <ele>339</ele>
      </trkpt>
      <trkpt lat="44.63471" lon="2.00938">
        <ele>339</ele>
      </trkpt>
      <trkpt lat="44.6347" lon="2.00929">
        <ele>339</ele>
      </trkpt>
      <trkpt lat="44.63468" lon="2.00919">
        <ele>339</ele>
      </trkpt>
      <trkpt lat="44.63467" lon="2.0091">
        <ele>337</ele>
      </trkpt>
      <trkpt lat="44.63465" lon="2.00898">
        <ele>336</ele>
      </trkpt>
      <trkpt lat="44.63463" lon="2.0089">
        <ele>336</ele>
      </trkpt>
      <trkpt lat="44.6346" lon="2.0088">
        <ele>336</ele>
      </trkpt>
      <trkpt lat="44.63461" lon="2.00872">
        <ele>336</ele>
        <time>2018-01-28T09:48:53Z</time>
      </trkpt>
      <trkpt lat="44.63481" lon="2.00867">
        <ele>335</ele>
        <time>2018-01-28T09:49:01Z</time>
      </trkpt>
      <trkpt lat="44.63486" lon="2.00865">
        <ele>335</ele>
        <time>2018-01-28T09:49:03Z</time>
      </trkpt>
      <trkpt lat="44.63494" lon="2.00857">
        <ele>334</ele>
        <time>2018-01-28T09:49:07Z</time>
      </trkpt>
      <trkpt lat="44.63505" lon="2.00846">
        <ele>334</ele>
        <time>2018-01-28T09:49:13Z</time>
      </trkpt>
      <trkpt lat="44.63511" lon="2.00837">
        <ele>334</ele>
        <time>2018-01-28T09:49:17Z</time>
      </trkpt>
      <trkpt lat="44.63519" lon="2.00822">
        <ele>333</ele>
        <time>2018-01-28T09:49:23Z</time>
      </trkpt>
      <trkpt lat="44.63523" lon="2.00811">
        <ele>333</ele>
        <time>2018-01-28T09:49:27Z</time>
      </trkpt>
      <trkpt lat="44.63528" lon="2.00792">
        <ele>332</ele>
        <time>2018-01-28T09:49:33Z</time>
      </trkpt>
      <trkpt lat="44.63532" lon="2.00765">
        <ele>331</ele>
        <time>2018-01-28T09:49:40Z</time>
      </trkpt>
      <trkpt lat="44.63533" lon="2.00755">
        <ele>331</ele>
        <time>2018-01-28T09:49:43Z</time>
      </trkpt>
      <trkpt lat="44.63535" lon="2.00729">
        <ele>324</ele>
        <time>2018-01-28T09:49:49Z</time>
      </trkpt>
      <trkpt lat="44.63541" lon="2.00716">
        <ele>324</ele>
        <time>2018-01-28T09:49:53Z</time>
      </trkpt>
      <trkpt lat="44.63551" lon="2.00694">
        <ele>324</ele>
        <time>2018-01-28T09:50:00Z</time>
      </trkpt>
      <trkpt lat="44.63556" lon="2.00685">
        <ele>324</ele>
        <time>2018-01-28T09:50:03Z</time>
      </trkpt>
      <trkpt lat="44.63572" lon="2.00666">
        <ele>322</ele>
        <time>2018-01-28T09:50:10Z</time>
      </trkpt>
      <trkpt lat="44.63576" lon="2.00661">
        <ele>323</ele>
        <time>2018-01-28T09:50:13Z</time>
      </trkpt>
      <trkpt lat="44.63586" lon="2.0064">
        <ele>328</ele>
        <time>2018-01-28T09:50:20Z</time>
      </trkpt>
      <trkpt lat="44.63589" lon="2.00631">
        <ele>328</ele>
        <time>2018-01-28T09:50:23Z</time>
      </trkpt>
      <trkpt lat="44.6359" lon="2.00618">
        <ele>327</ele>
        <time>2018-01-28T09:50:27Z</time>
      </trkpt>
      <trkpt lat="44.63588" lon="2.00615">
        <ele>327</ele>
        <time>2018-01-28T09:50:28Z</time>
      </trkpt>
      <trkpt lat="44.63584" lon="2.00609">
        <ele>326</ele>
        <time>2018-01-28T09:50:30Z</time>
      </trkpt>
      <trkpt lat="44.63576" lon="2.00603">
        <ele>315</ele>
        <time>2018-01-28T09:50:33Z</time>
      </trkpt>
      <trkpt lat="44.63558" lon="2.00595">
        <ele>314</ele>
        <time>2018-01-28T09:50:40Z</time>
      </trkpt>
      <trkpt lat="44.6355" lon="2.00591">
        <ele>312</ele>
        <time>2018-01-28T09:50:43Z</time>
      </trkpt>
      <trkpt lat="44.63542" lon="2.00579">
        <ele>306</ele>
        <time>2018-01-28T09:50:48Z</time>
      </trkpt>
      <trkpt lat="44.63546" lon="2.00559">
        <ele>306</ele>
        <time>2018-01-28T09:50:53Z</time>
      </trkpt>
      <trkpt lat="44.6355" lon="2.00533">
        <ele>306</ele>
        <time>2018-01-28T09:50:59Z</time>
      </trkpt>
      <trkpt lat="44.63554" lon="2.00519">
        <ele>306</ele>
        <time>2018-01-28T09:51:03Z</time>
      </trkpt>
      <trkpt lat="44.63561" lon="2.00494">
        <ele>304</ele>
        <time>2018-01-28T09:51:10Z</time>
      </trkpt>
      <trkpt lat="44.63565" lon="2.00484">
        <ele>304</ele>
        <time>2018-01-28T09:51:13Z</time>
      </trkpt>
      <trkpt lat="44.63567" lon="2.00478">
        <ele>303</ele>
        <time>2018-01-28T09:51:15Z</time>
      </trkpt>
      <trkpt lat="44.63574" lon="2.00453">
        <ele>302</ele>
        <time>2018-01-28T09:51:23Z</time>
      </trkpt>
      <trkpt lat="44.63572" lon="2.00427">
        <ele>303</ele>
        <time>2018-01-28T09:51:31Z</time>
      </trkpt>
      <trkpt lat="44.63571" lon="2.0042">
        <ele>303</ele>
        <time>2018-01-28T09:51:33Z</time>
      </trkpt>
      <trkpt lat="44.63572" lon="2.00408">
        <ele>301</ele>
        <time>2018-01-28T09:51:37Z</time>
      </trkpt>
      <trkpt lat="44.63565" lon="2.00387">
        <ele>298</ele>
        <time>2018-01-28T09:51:43Z</time>
      </trkpt>
      <trkpt lat="44.63559" lon="2.00364">
        <ele>297</ele>
        <time>2018-01-28T09:51:50Z</time>
      </trkpt>
      <trkpt lat="44.63561" lon="2.00353">
        <ele>297</ele>
        <time>2018-01-28T09:51:53Z</time>
      </trkpt>
      <trkpt lat="44.63566" lon="2.00327">
        <ele>297</ele>
        <time>2018-01-28T09:52:00Z</time>
      </trkpt>
      <trkpt lat="44.63569" lon="2.00317">
        <ele>296</ele>
        <time>2018-01-28T09:52:03Z</time>
      </trkpt>
      <trkpt lat="44.63568" lon="2.0029">
        <ele>294</ele>
        <time>2018-01-28T09:52:11Z</time>
      </trkpt>
      <trkpt lat="44.63568" lon="2.00284">
        <ele>294</ele>
        <time>2018-01-28T09:52:13Z</time>
      </trkpt>
      <trkpt lat="44.63571" lon="2.00258">
        <ele>295</ele>
        <time>2018-01-28T09:52:21Z</time>
      </trkpt>
      <trkpt lat="44.63572" lon="2.00252">
        <ele>295</ele>
        <time>2018-01-28T09:52:23Z</time>
      </trkpt>
      <trkpt lat="44.63582" lon="2.0023">
        <ele>293</ele>
        <time>2018-01-28T09:52:31Z</time>
      </trkpt>
      <trkpt lat="44.63585" lon="2.00226">
        <ele>298</ele>
        <time>2018-01-28T09:52:33Z</time>
      </trkpt>
      <trkpt lat="44.63594" lon="2.00216">
        <ele>299</ele>
        <time>2018-01-28T09:52:38Z</time>
      </trkpt>
      <trkpt lat="44.63601" lon="2.00205">
        <ele>299</ele>
        <time>2018-01-28T09:52:43Z</time>
      </trkpt>
      <trkpt lat="44.63607" lon="2.00198">
        <ele>299</ele>
        <time>2018-01-28T09:52:47Z</time>
      </trkpt>
      <trkpt lat="44.6361" lon="2.00195">
        <ele>299</ele>
        <time>2018-01-28T09:52:49Z</time>
      </trkpt>
      <trkpt lat="44.63615" lon="2.0019">
        <ele>299</ele>
        <time>2018-01-28T09:52:53Z</time>
      </trkpt>
      <trkpt lat="44.63619" lon="2.00185">
        <ele>299</ele>
        <time>2018-01-28T09:52:56Z</time>
      </trkpt>
      <trkpt lat="44.63623" lon="2.00182">
        <ele>299</ele>
        <time>2018-01-28T09:52:57Z</time>
      </trkpt>
      <trkpt lat="44.63627" lon="2.0018">
        <ele>299</ele>
        <time>2018-01-28T09:53:00Z</time>
      </trkpt>
      <trkpt lat="44.63633" lon="2.00174">
        <ele>299</ele>
        <time>2018-01-28T09:53:03Z</time>
      </trkpt>
      <trkpt lat="44.6365" lon="2.00161">
        <ele>297</ele>
        <time>2018-01-28T09:53:11Z</time>
      </trkpt>
      <trkpt lat="44.63654" lon="2.00158">
        <ele>297</ele>
        <time>2018-01-28T09:53:13Z</time>
      </trkpt>
      <trkpt lat="44.63668" lon="2.00138">
        <ele>299</ele>
        <time>2018-01-28T09:53:21Z</time>
      </trkpt>
      <trkpt lat="44.63671" lon="2.00133">
        <ele>299</ele>
        <time>2018-01-28T09:53:23Z</time>
      </trkpt>
      <trkpt lat="44.63683" lon="2.00111">
        <ele>298</ele>
        <time>2018-01-28T09:53:31Z</time>
      </trkpt>
      <trkpt lat="44.63686" lon="2.00107">
        <ele>298</ele>
        <time>2018-01-28T09:53:33Z</time>
      </trkpt>
      <trkpt lat="44.63692" lon="2.00098">
        <ele>297</ele>
        <time>2018-01-28T09:53:37Z</time>
      </trkpt>
      <trkpt lat="44.63695" lon="2.00093">
        <ele>297</ele>
        <time>2018-01-28T09:53:39Z</time>
      </trkpt>
      <trkpt lat="44.63697" lon="2.0009">
        <ele>297</ele>
        <time>2018-01-28T09:53:40Z</time>
      </trkpt>
      <trkpt lat="44.63702" lon="2.00083">
        <ele>294</ele>
        <time>2018-01-28T09:53:43Z</time>
      </trkpt>
      <trkpt lat="44.6371" lon="2.00072">
        <ele>295</ele>
        <time>2018-01-28T09:53:48Z</time>
      </trkpt>
      <trkpt lat="44.63719" lon="2.0006">
        <ele>295</ele>
        <time>2018-01-28T09:53:53Z</time>
      </trkpt>
      <trkpt lat="44.63733" lon="2.00044">
        <ele>294</ele>
        <time>2018-01-28T09:54:00Z</time>
      </trkpt>
      <trkpt lat="44.63738" lon="2.00038">
        <ele>294</ele>
        <time>2018-01-28T09:54:03Z</time>
      </trkpt>
      <trkpt lat="44.63756" lon="2.00026">
        <ele>295</ele>
        <time>2018-01-28T09:54:11Z</time>
      </trkpt>
      <trkpt lat="44.63759" lon="2.00022">
        <ele>295</ele>
        <time>2018-01-28T09:54:13Z</time>
      </trkpt>
      <trkpt lat="44.63775" lon="2.00008">
        <ele>295</ele>
        <time>2018-01-28T09:54:21Z</time>
      </trkpt>
      <trkpt lat="44.63778" lon="2.00004">
        <ele>295</ele>
        <time>2018-01-28T09:54:23Z</time>
      </trkpt>
      <trkpt lat="44.63784" lon="1.99997">
        <ele>289</ele>
        <time>2018-01-28T09:54:26Z</time>
      </trkpt>
      <trkpt lat="44.63798" lon="1.9998">
        <ele>288</ele>
        <time>2018-01-28T09:54:33Z</time>
      </trkpt>
      <trkpt lat="44.63815" lon="1.99965">
        <ele>287</ele>
        <time>2018-01-28T09:54:40Z</time>
      </trkpt>
      <trkpt lat="44.63821" lon="1.99961">
        <ele>286</ele>
        <time>2018-01-28T09:54:43Z</time>
      </trkpt>
      <trkpt lat="44.63835" lon="1.99954">
        <ele>282</ele>
        <time>2018-01-28T09:54:49Z</time>
      </trkpt>
      <trkpt lat="44.63846" lon="1.99951">
        <ele>282</ele>
        <time>2018-01-28T09:54:53Z</time>
      </trkpt>
      <trkpt lat="44.63865" lon="1.99954">
        <ele>282</ele>
        <time>2018-01-28T09:55:02Z</time>
      </trkpt>
      <trkpt lat="44.63867" lon="1.99954">
        <ele>282</ele>
        <time>2018-01-28T09:55:03Z</time>
      </trkpt>
      <trkpt lat="44.63881" lon="1.99956">
        <ele>281</ele>
        <time>2018-01-28T09:55:09Z</time>
      </trkpt>
      <trkpt lat="44.63893" lon="1.99958">
        <ele>281</ele>
        <time>2018-01-28T09:55:13Z</time>
      </trkpt>
      <trkpt lat="44.639" lon="1.9996">
        <ele>281</ele>
        <time>2018-01-28T09:55:16Z</time>
      </trkpt>
      <trkpt lat="44.63913" lon="1.99962">
        <ele>281</ele>
        <time>2018-01-28T09:55:23Z</time>
      </trkpt>
      <trkpt lat="44.63928" lon="1.9996">
        <ele>276</ele>
        <time>2018-01-28T09:55:30Z</time>
      </trkpt>
      <trkpt lat="44.63936" lon="1.99956">
        <ele>275</ele>
        <time>2018-01-28T09:55:33Z</time>
      </trkpt>
      <trkpt lat="44.63953" lon="1.99944">
        <ele>274</ele>
        <time>2018-01-28T09:55:40Z</time>
      </trkpt>
      <trkpt lat="44.6396" lon="1.9994">
        <ele>273</ele>
        <time>2018-01-28T09:55:43Z</time>
      </trkpt>
      <trkpt lat="44.63978" lon="1.99933">
        <ele>271</ele>
        <time>2018-01-28T09:55:51Z</time>
      </trkpt>
      <trkpt lat="44.63981" lon="1.99932">
        <ele>270</ele>
        <time>2018-01-28T09:55:53Z</time>
      </trkpt>
      <trkpt lat="44.64002" lon="1.99932">
        <ele>264</ele>
        <time>2018-01-28T09:56:02Z</time>
      </trkpt>
      <trkpt lat="44.64005" lon="1.99932">
        <ele>264</ele>
        <time>2018-01-28T09:56:03Z</time>
      </trkpt>
      <trkpt lat="44.64024" lon="1.99938">
        <ele>263</ele>
        <time>2018-01-28T09:56:10Z</time>
      </trkpt>
      <trkpt lat="44.64029" lon="1.9994">
        <ele>263</ele>
        <time>2018-01-28T09:56:13Z</time>
      </trkpt>
      <trkpt lat="44.64043" lon="1.99947">
        <ele>263</ele>
        <time>2018-01-28T09:56:19Z</time>
      </trkpt>
      <trkpt lat="44.64051" lon="1.99954">
        <ele>263</ele>
        <time>2018-01-28T09:56:23Z</time>
      </trkpt>
      <trkpt lat="44.64068" lon="1.99965">
        <ele>263</ele>
        <time>2018-01-28T09:56:31Z</time>
      </trkpt>
      <trkpt lat="44.64072" lon="1.99967">
        <ele>263</ele>
        <time>2018-01-28T09:56:33Z</time>
      </trkpt>
      <trkpt lat="44.64091" lon="1.99975">
        <ele>253</ele>
        <time>2018-01-28T09:56:41Z</time>
      </trkpt>
      <trkpt lat="44.64097" lon="1.99975">
        <ele>253</ele>
        <time>2018-01-28T09:56:43Z</time>
      </trkpt>
      <trkpt lat="44.64111" lon="1.99969">
        <ele>250</ele>
        <time>2018-01-28T09:56:49Z</time>
      </trkpt>
      <trkpt lat="44.6411" lon="1.99962">
        <ele>249</ele>
        <time>2018-01-28T09:56:52Z</time>
      </trkpt>
      <trkpt lat="44.64109" lon="1.99957">
        <ele>248</ele>
        <time>2018-01-28T09:56:53Z</time>
      </trkpt>
      <trkpt lat="44.64111" lon="1.99944">
        <ele>247</ele>
        <time>2018-01-28T09:56:59Z</time>
      </trkpt>
      <trkpt lat="44.64114" lon="1.99936">
        <ele>246</ele>
        <time>2018-01-28T09:57:03Z</time>
      </trkpt>
      <trkpt lat="44.64123" lon="1.99911">
        <ele>236</ele>
        <time>2018-01-28T09:57:13Z</time>
      </trkpt>
      <trkpt lat="44.64132" lon="1.99887">
        <ele>234</ele>
        <time>2018-01-28T09:57:22Z</time>
      </trkpt>
      <trkpt lat="44.64133" lon="1.99885">
        <ele>234</ele>
        <time>2018-01-28T09:57:23Z</time>
      </trkpt>
      <trkpt lat="44.64139" lon="1.99867">
        <ele>232</ele>
        <time>2018-01-28T09:57:30Z</time>
      </trkpt>
      <trkpt lat="44.64142" lon="1.99863">
        <ele>232</ele>
        <time>2018-01-28T09:57:32Z</time>
      </trkpt>
      <trkpt lat="44.64143" lon="1.99861">
        <ele>232</ele>
        <time>2018-01-28T09:57:33Z</time>
      </trkpt>
      <trkpt lat="44.64157" lon="1.99844">
        <ele>228</ele>
        <time>2018-01-28T09:57:41Z</time>
      </trkpt>
      <trkpt lat="44.6416" lon="1.99837">
        <ele>226</ele>
        <time>2018-01-28T09:57:43Z</time>
      </trkpt>
      <trkpt lat="44.64167" lon="1.99812">
        <ele>223</ele>
        <time>2018-01-28T09:57:50Z</time>
      </trkpt>
      <trkpt lat="44.6417" lon="1.99802">
        <ele>223</ele>
        <time>2018-01-28T09:57:53Z</time>
      </trkpt>
      <trkpt lat="44.64177" lon="1.99775">
        <ele>221</ele>
        <time>2018-01-28T09:58:01Z</time>
      </trkpt>
      <trkpt lat="44.64178" lon="1.99769">
        <ele>220</ele>
        <time>2018-01-28T09:58:03Z</time>
      </trkpt>
      <trkpt lat="44.64184" lon="1.99744">
        <ele>216</ele>
        <time>2018-01-28T09:58:10Z</time>
      </trkpt>
      <trkpt lat="44.64186" lon="1.99738">
        <ele>216</ele>
        <time>2018-01-28T09:58:13Z</time>
      </trkpt>
      <trkpt lat="44.64196" lon="1.99716">
        <ele>215</ele>
        <time>2018-01-28T09:58:21Z</time>
      </trkpt>
      <trkpt lat="44.642" lon="1.99713">
        <ele>215</ele>
        <time>2018-01-28T09:58:23Z</time>
      </trkpt>
      <trkpt lat="44.64213" lon="1.99694">
        <ele>215</ele>
        <time>2018-01-28T09:58:30Z</time>
      </trkpt>
      <trkpt lat="44.64217" lon="1.99684">
        <ele>215</ele>
        <time>2018-01-28T09:58:33Z</time>
      </trkpt>
      <trkpt lat="44.64227" lon="1.9966">
        <ele>211</ele>
        <time>2018-01-28T09:58:40Z</time>
      </trkpt>
      <trkpt lat="44.64232" lon="1.9965">
        <ele>211</ele>
        <time>2018-01-28T09:58:43Z</time>
      </trkpt>
      <trkpt lat="44.6424" lon="1.99625">
        <ele>211</ele>
        <time>2018-01-28T09:58:50Z</time>
      </trkpt>
      <trkpt lat="44.64244" lon="1.99615">
        <ele>211</ele>
        <time>2018-01-28T09:58:53Z</time>
      </trkpt>
      <trkpt lat="44.64253" lon="1.99594">
        <ele>211</ele>
        <time>2018-01-28T09:58:59Z</time>
      </trkpt>
      <trkpt lat="44.6426" lon="1.99582">
        <ele>211</ele>
        <time>2018-01-28T09:59:03Z</time>
      </trkpt>
      <trkpt lat="44.64273" lon="1.99558">
        <ele>213</ele>
        <time>2018-01-28T09:59:10Z</time>
      </trkpt>
      <trkpt lat="44.64279" lon="1.99549">
        <ele>213</ele>
        <time>2018-01-28T09:59:13Z</time>
      </trkpt>
      <trkpt lat="44.64283" lon="1.99544">
        <ele>213</ele>
        <time>2018-01-28T09:59:15Z</time>
      </trkpt>
      <trkpt lat="44.64294" lon="1.99535">
        <ele>214</ele>
        <time>2018-01-28T09:59:20Z</time>
      </trkpt>
      <trkpt lat="44.64298" lon="1.99537">
        <ele>214</ele>
        <time>2018-01-28T09:59:21Z</time>
      </trkpt>
      <trkpt lat="44.643" lon="1.99539">
        <ele>214</ele>
        <time>2018-01-28T09:59:23Z</time>
      </trkpt>
      <trkpt lat="44.64307" lon="1.99554">
        <ele>214</ele>
        <time>2018-01-28T09:59:28Z</time>
      </trkpt>
      <trkpt lat="44.64315" lon="1.9957">
        <ele>214</ele>
        <time>2018-01-28T09:59:33Z</time>
      </trkpt>
      <trkpt lat="44.64329" lon="1.99585">
        <ele>214</ele>
        <time>2018-01-28T09:59:41Z</time>
      </trkpt>
      <trkpt lat="44.64334" lon="1.99587">
        <ele>214</ele>
        <time>2018-01-28T09:59:43Z</time>
      </trkpt>
    </trkseg>
  </trk>
</gpx>